Darstellungsparameter: Aktuell verwendete Einstellungen:
Skalierung der Graphiken ... ?
xyx+y,   Skalierungsfaktor:      Skalierung: Modus: x, Faktor: 1
Darstellungszeitraum ... ?
Vom - - bis: - -   Zeitraum: 18.07.2017 - 24.07.2017
Min/Max/Avg-Anzeige ... ?
Zeige MMA aktuell
Zeige MMA Monat
Zeige MMA alles
Zeige --A aktuell
Zeige --A Monat
Zeige --A alles
Keine MMA-Anzeige
MMA:
Keine MMA-Graphiken
MMA-Basis: 18.07.2017 - 24.07.2017
Quicknavigation für Darstellung... ?
Tage:      1T, 2T, 3T, 5T -1T -2T -3T -5T +1T +2T +3T +5T
Wochen: 1W, 2W, 3W -1W -2W -3W +1W +2W +3W
Monate: 1M, 3M, 6M -1M -3M -6M +1M +3M +6M
Jahre:    1J, 3J, 5J, 10J -1J -3J -5J -10J +1J +3J +5J +10J
Nutze für die Darstellung ... ?
Originaldaten oder Mittelwerte auf ...
Stundenbasis Tagesbasis Wochenbasis
Monatsbasis Jahresbasis      Datenbasis: Original-Daten
Darstellen als:
Statistik (Auto) Statistik J:M      Darstellung:
Zur Graphik,    zurück zur Übersicht aller Sensoren.
 
Tabellarische Datenbersicht: ?
 
Sensor: Nr:Datum:Temp:Feuchte:Taupunkt:
Aussen-T/F 1 18-07-2017 00:00:00 17.8 C 90 % 16.14 C
2 18-07-2017 00:05:00 17.8 C 90 % 16.14 C
3 18-07-2017 00:10:00 17.7 C 90 % 16.04 C
4 18-07-2017 00:15:00 17.7 C 89 % 15.86 C
5 18-07-2017 00:20:00 17.5 C 89 % 15.67 C
6 18-07-2017 00:25:00 17.4 C 90 % 15.74 C
7 18-07-2017 00:30:00 17.3 C 90 % 15.64 C
8 18-07-2017 00:35:00 17.3 C 90 % 15.64 C
9 18-07-2017 00:40:00 17.2 C 90 % 15.55 C
10 18-07-2017 00:45:00 17.1 C 90 % 15.45 C
11 18-07-2017 00:50:00 17 C 90 % 15.35 C
12 18-07-2017 00:55:00 16.9 C 91 % 15.42 C
13 18-07-2017 01:00:00 16.9 C 91 % 15.42 C
14 18-07-2017 01:05:00 16.8 C 91 % 15.32 C
15 18-07-2017 01:10:00 16.7 C 91 % 15.22 C
16 18-07-2017 01:15:00 16.6 C 91 % 15.13 C
17 18-07-2017 01:20:00 16.6 C 91 % 15.13 C
18 18-07-2017 01:25:00 16.5 C 91 % 15.03 C
19 18-07-2017 01:30:00 16.4 C 92 % 15.1 C
20 18-07-2017 01:35:00 16.3 C 92 % 15 C
21 18-07-2017 01:40:00 16.3 C 92 % 15 C
22 18-07-2017 01:45:00 16.2 C 92 % 14.9 C
23 18-07-2017 01:50:00 16.2 C 92 % 14.9 C
24 18-07-2017 01:55:00 16.1 C 92 % 14.8 C
25 18-07-2017 02:00:00 16.1 C 92 % 14.8 C
Sensor: Nr:Datum:Temp:Feuchte:Taupunkt:
Aussen-T/F 26 18-07-2017 02:05:00 16.1 C 92 % 14.8 C
27 18-07-2017 02:10:00 16 C 93 % 14.87 C
28 18-07-2017 02:15:00 15.9 C 93 % 14.77 C
29 18-07-2017 02:20:00 15.8 C 93 % 14.67 C
30 18-07-2017 02:25:00 15.8 C 93 % 14.67 C
31 18-07-2017 02:30:00 15.7 C 93 % 14.57 C
32 18-07-2017 02:35:00 15.8 C 93 % 14.67 C
33 18-07-2017 02:40:00 15.7 C 93 % 14.57 C
34 18-07-2017 02:45:00 15.7 C 93 % 14.57 C
35 18-07-2017 02:50:00 15.7 C 93 % 14.57 C
36 18-07-2017 02:55:00 15.6 C 93 % 14.47 C
37 18-07-2017 03:00:00 15.6 C 93 % 14.47 C
38 18-07-2017 03:05:00 15.5 C 93 % 14.37 C
39 18-07-2017 03:10:00 15.4 C 93 % 14.27 C
40 18-07-2017 03:15:00 15.4 C 94 % 14.44 C
41 18-07-2017 03:20:00 15.4 C 94 % 14.44 C
42 18-07-2017 03:25:00 15.4 C 94 % 14.44 C
43 18-07-2017 03:30:00 15.3 C 94 % 14.34 C
44 18-07-2017 03:35:00 15.4 C 94 % 14.44 C
45 18-07-2017 03:40:00 15.4 C 94 % 14.44 C
46 18-07-2017 03:45:00 15.3 C 94 % 14.34 C
47 18-07-2017 03:50:00 15.3 C 94 % 14.34 C
48 18-07-2017 03:55:00 15.2 C 94 % 14.24 C
49 18-07-2017 04:00:00 15.1 C 94 % 14.14 C
50 18-07-2017 04:05:00 15 C 94 % 14.04 C
Sensor: Nr:Datum:Temp:Feuchte:Taupunkt:
Aussen-T/F 51 18-07-2017 04:10:00 15 C 94 % 14.04 C
52 18-07-2017 04:15:00 14.9 C 94 % 13.94 C
53 18-07-2017 04:20:00 14.9 C 94 % 13.94 C
54 18-07-2017 04:25:00 14.9 C 94 % 13.94 C
55 18-07-2017 04:30:00 14.9 C 94 % 13.94 C
56 18-07-2017 04:35:00 14.8 C 94 % 13.84 C
57 18-07-2017 04:40:00 14.8 C 94 % 13.84 C
58 18-07-2017 04:45:00 14.8 C 94 % 13.84 C
59 18-07-2017 04:50:00 14.7 C 94 % 13.74 C
60 18-07-2017 04:55:00 14.7 C 94 % 13.74 C
61 18-07-2017 05:00:00 14.7 C 95 % 13.91 C
62 18-07-2017 05:05:00 14.7 C 95 % 13.91 C
63 18-07-2017 05:10:00 14.7 C 95 % 13.91 C
64 18-07-2017 05:15:00 14.7 C 95 % 13.91 C
65 18-07-2017 05:20:00 14.6 C 95 % 13.81 C
66 18-07-2017 05:25:00 14.6 C 95 % 13.81 C
67 18-07-2017 05:30:00 14.5 C 95 % 13.71 C
68 18-07-2017 05:35:00 14.5 C 95 % 13.71 C
69 18-07-2017 05:40:00 14.5 C 95 % 13.71 C
70 18-07-2017 05:45:00 14.5 C 95 % 13.71 C
71 18-07-2017 05:50:00 14.5 C 95 % 13.71 C
72 18-07-2017 05:55:00 14.4 C 95 % 13.61 C
73 18-07-2017 06:00:00 14.4 C 95 % 13.61 C
74 18-07-2017 06:05:00 14.5 C 95 % 13.71 C
75 18-07-2017 06:10:00 14.5 C 95 % 13.71 C
Sensor: Nr:Datum:Temp:Feuchte:Taupunkt:
Aussen-T/F 76 18-07-2017 06:15:00 14.6 C 95 % 13.81 C
77 18-07-2017 06:20:00 14.6 C 95 % 13.81 C
78 18-07-2017 06:25:00 14.6 C 95 % 13.81 C
79 18-07-2017 06:30:00 14.7 C 95 % 13.91 C
80 18-07-2017 06:35:00 14.7 C 95 % 13.91 C
81 18-07-2017 06:40:00 14.8 C 96 % 14.17 C
82 18-07-2017 06:45:00 14.8 C 96 % 14.17 C
83 18-07-2017 06:50:00 14.9 C 96 % 14.27 C
84 18-07-2017 06:55:00 15 C 96 % 14.37 C
85 18-07-2017 07:00:00 15.1 C 96 % 14.47 C
86 18-07-2017 07:05:00 15.2 C 96 % 14.57 C
87 18-07-2017 07:10:00 15.3 C 96 % 14.67 C
88 18-07-2017 07:15:00 15.4 C 96 % 14.77 C
89 18-07-2017 07:20:00 15.5 C 96 % 14.86 C
90 18-07-2017 07:25:00 15.6 C 96 % 14.96 C
91 18-07-2017 07:30:00 15.7 C 96 % 15.06 C
92 18-07-2017 07:35:00 15.8 C 96 % 15.16 C
93 18-07-2017 07:40:00 15.9 C 96 % 15.26 C
94 18-07-2017 07:45:00 15.9 C 96 % 15.26 C
95 18-07-2017 07:50:00 15.9 C 96 % 15.26 C
96 18-07-2017 07:55:00 15.9 C 96 % 15.26 C
97 18-07-2017 08:00:00 15.8 C 95 % 15 C
98 18-07-2017 08:05:00 15.8 C 95 % 15 C
99 18-07-2017 08:10:00 15.8 C 95 % 15 C
100 18-07-2017 08:15:00 15.8 C 95 % 15 C
Sensor: Nr:Datum:Temp:Feuchte:Taupunkt:
Aussen-T/F 101 18-07-2017 08:20:00 15.8 C 95 % 15 C
102 18-07-2017 08:25:00 15.8 C 96 % 15.16 C
103 18-07-2017 08:30:00 15.9 C 96 % 15.26 C
104 18-07-2017 08:35:00 15.9 C 95 % 15.1 C
105 18-07-2017 08:40:00 16 C 95 % 15.2 C
106 18-07-2017 08:45:00 16.1 C 95 % 15.3 C
107 18-07-2017 08:50:00 16.1 C 96 % 15.46 C
108 18-07-2017 08:55:00 16.2 C 95 % 15.4 C
109 18-07-2017 09:00:00 16.2 C 95 % 15.4 C
110 18-07-2017 09:05:00 16.3 C 95 % 15.5 C
111 18-07-2017 09:10:00 16.3 C 95 % 15.5 C
112 18-07-2017 09:15:00 16.4 C 95 % 15.6 C
113 18-07-2017 09:20:00 16.5 C 95 % 15.7 C
114 18-07-2017 09:25:00 16.6 C 94 % 15.63 C
115 18-07-2017 09:30:00 16.8 C 94 % 15.83 C
116 18-07-2017 09:35:00 16.9 C 93 % 15.76 C
117 18-07-2017 09:40:00 17.1 C 92 % 15.79 C
118 18-07-2017 09:45:00 17.3 C 91 % 15.82 C
119 18-07-2017 09:50:00 17.7 C 89 % 15.86 C
120 18-07-2017 09:55:00 17.9 C 87 % 15.71 C
121 18-07-2017 10:00:00 18.4 C 85 % 15.83 C
122 18-07-2017 10:05:00 18.8 C 84 % 16.04 C
123 18-07-2017 10:10:00 19.1 C 83 % 16.15 C
124 18-07-2017 10:15:00 19.3 C 83 % 16.34 C
125 18-07-2017 10:20:00 19.5 C 82 % 16.35 C
Sensor: Nr:Datum:Temp:Feuchte:Taupunkt:
Aussen-T/F 126 18-07-2017 10:25:00 19.8 C 81 % 16.45 C
127 18-07-2017 10:30:00 20.2 C 80 % 16.64 C
128 18-07-2017 10:35:00 20.7 C 78 % 16.73 C
129 18-07-2017 10:40:00 21 C 78 % 17.02 C
130 18-07-2017 10:45:00 21.3 C 76 % 16.9 C
131 18-07-2017 10:50:00 21.7 C 78 % 17.7 C
132 18-07-2017 10:55:00 21.8 C 75 % 17.17 C
133 18-07-2017 11:00:00 22.1 C 75 % 17.46 C
134 18-07-2017 11:05:00 22.2 C 75 % 17.56 C
135 18-07-2017 11:10:00 22.3 C 75 % 17.65 C
136 18-07-2017 11:15:00 22.4 C 74 % 17.54 C
137 18-07-2017 11:20:00 22.5 C 72 % 17.2 C
138 18-07-2017 11:25:00 22.7 C 72 % 17.39 C
139 18-07-2017 11:30:00 22.9 C 72 % 17.58 C
140 18-07-2017 11:35:00 23.1 C 71 % 17.55 C
141 18-07-2017 11:40:00 23.3 C 71 % 17.75 C
142 18-07-2017 11:45:00 23.3 C 70 % 17.52 C
143 18-07-2017 11:50:00 23.6 C 70 % 17.81 C
144 18-07-2017 11:55:00 23.8 C 69 % 17.77 C
145 18-07-2017 12:00:00 24.1 C 68 % 17.82 C
146 18-07-2017 12:05:00 24.2 C 68 % 17.92 C
147 18-07-2017 12:10:00 24.3 C 67 % 17.78 C
148 18-07-2017 12:15:00 24.3 C 67 % 17.78 C
149 18-07-2017 12:20:00 24.4 C 66 % 17.64 C
150 18-07-2017 12:25:00 24.6 C 67 % 18.06 C
Sensor: Nr:Datum:Temp:Feuchte:Taupunkt:
Aussen-T/F 151 18-07-2017 12:30:00 24.8 C 65 % 17.77 C
152 18-07-2017 12:35:00 24.8 C 64 % 17.53 C
153 18-07-2017 12:40:00 24.8 C 64 % 17.53 C
154 18-07-2017 12:45:00 25.1 C 62 % 17.31 C
155 18-07-2017 12:50:00 25.2 C 62 % 17.4 C
156 18-07-2017 12:55:00 25.2 C 62 % 17.4 C
157 18-07-2017 13:00:00 25.3 C 66 % 18.49 C
158 18-07-2017 13:05:00 25.4 C 61 % 17.33 C
159 18-07-2017 13:10:00 25.6 C 61 % 17.52 C
160 18-07-2017 13:15:00 25.8 C 61 % 17.71 C
161 18-07-2017 13:20:00 25.9 C 59 % 17.27 C
162 18-07-2017 13:25:00 26 C 59 % 17.37 C
163 18-07-2017 13:30:00 26.2 C 59 % 17.55 C
164 18-07-2017 13:35:00 26.2 C 58 % 17.28 C
165 18-07-2017 13:40:00 26.3 C 58 % 17.38 C
166 18-07-2017 13:45:00 26.4 C 56 % 16.92 C
167 18-07-2017 13:50:00 26.4 C 56 % 16.92 C
168 18-07-2017 13:55:00 26.5 C 57 % 17.29 C
169 18-07-2017 14:00:00 26.7 C 56 % 17.19 C
170 18-07-2017 14:05:00 26.7 C 55 % 16.91 C
171 18-07-2017 14:10:00 26.8 C 56 % 17.29 C
172 18-07-2017 14:15:00 26.9 C 56 % 17.38 C
173 18-07-2017 14:20:00 27 C 56 % 17.47 C
174 18-07-2017 14:25:00 27.1 C 56 % 17.57 C
175 18-07-2017 14:30:00 27.2 C 54 % 17.08 C
Sensor: Nr:Datum:Temp:Feuchte:Taupunkt:
Aussen-T/F 176 18-07-2017 14:35:00 27.2 C 54 % 17.08 C
177 18-07-2017 14:40:00 27.2 C 55 % 17.37 C
178 18-07-2017 14:45:00 27.3 C 56 % 17.75 C
179 18-07-2017 14:50:00 27.4 C 54 % 17.27 C
180 18-07-2017 14:55:00 27.6 C 56 % 18.03 C
181 18-07-2017 15:00:00 27.7 C 55 % 17.84 C
182 18-07-2017 15:05:00 27.8 C 55 % 17.93 C
183 18-07-2017 15:10:00 27.9 C 56 % 18.31 C
184 18-07-2017 15:15:00 28.1 C 54 % 17.92 C
185 18-07-2017 15:20:00 28.2 C 55 % 18.3 C
186 18-07-2017 15:25:00 28.4 C 54 % 18.19 C
187 18-07-2017 15:30:00 28.6 C 53 % 18.08 C
188 18-07-2017 15:35:00 28.8 C 52 % 17.96 C
189 18-07-2017 15:40:00 28.8 C 53 % 18.26 C
190 18-07-2017 15:45:00 28.9 C 53 % 18.36 C
191 18-07-2017 15:50:00 29 C 56 % 19.33 C
192 18-07-2017 15:55:00 29.2 C 54 % 18.93 C
193 18-07-2017 16:00:00 29.6 C 52 % 18.7 C
194 18-07-2017 16:05:00 29.6 C 51 % 18.39 C
195 18-07-2017 16:10:00 29.7 C 52 % 18.79 C
196 18-07-2017 16:15:00 29.8 C 51 % 18.57 C
197 18-07-2017 16:20:00 29.7 C 52 % 18.79 C
198 18-07-2017 16:25:00 30.2 C 51 % 18.94 C
199 18-07-2017 16:30:00 30.1 C 50 % 18.53 C
200 18-07-2017 16:35:00 29.7 C 51 % 18.48 C
Sensor: Nr:Datum:Temp:Feuchte:Taupunkt:
Aussen-T/F 201 18-07-2017 16:40:00 29.7 C 52 % 18.79 C
202 18-07-2017 16:45:00 29.7 C 51 % 18.48 C
203 18-07-2017 16:50:00 29.7 C 50 % 18.16 C
204 18-07-2017 16:55:00 29.7 C 52 % 18.79 C
205 18-07-2017 17:00:00 29.8 C 51 % 18.57 C
206 18-07-2017 17:05:00 30.1 C 51 % 18.85 C
207 18-07-2017 17:10:00 30.2 C 50 % 18.62 C
208 18-07-2017 17:15:00 29.8 C 50 % 18.25 C
209 18-07-2017 17:20:00 29.5 C 52 % 18.61 C
210 18-07-2017 17:25:00 29.3 C 57 % 19.89 C
211 18-07-2017 17:30:00 29.3 C 52 % 18.42 C
212 18-07-2017 17:35:00 29.7 C 52 % 18.79 C
213 18-07-2017 17:40:00 30 C 49 % 18.12 C
214 18-07-2017 17:45:00 30.2 C 50 % 18.62 C
215 18-07-2017 17:50:00 30.4 C 48 % 18.15 C
216 18-07-2017 17:55:00 30.3 C 50 % 18.71 C
217 18-07-2017 18:00:00 30.3 C 49 % 18.39 C
218 18-07-2017 18:05:00 30.6 C 49 % 18.66 C
219 18-07-2017 18:10:00 30.7 C 48 % 18.43 C
220 18-07-2017 18:15:00 30.7 C 47 % 18.09 C
221 18-07-2017 18:20:00 30.5 C 48 % 18.24 C
222 18-07-2017 18:25:00 30.7 C 48 % 18.43 C
223 18-07-2017 18:30:00 30.8 C 47 % 18.18 C
224 18-07-2017 18:35:00 30.8 C 47 % 18.18 C
225 18-07-2017 18:40:00 30.9 C 47 % 18.27 C
Sensor: Nr:Datum:Temp:Feuchte:Taupunkt:
Aussen-T/F 226 18-07-2017 18:45:00 30.9 C 46 % 17.93 C
227 18-07-2017 18:50:00 30.8 C 47 % 18.18 C
228 18-07-2017 18:55:00 30.8 C 47 % 18.18 C
229 18-07-2017 19:00:00 30.8 C 47 % 18.18 C
230 18-07-2017 19:05:00 30.8 C 46 % 17.84 C
231 18-07-2017 19:10:00 30.7 C 47 % 18.09 C
232 18-07-2017 19:15:00 30.6 C 48 % 18.33 C
233 18-07-2017 19:20:00 30.4 C 48 % 18.15 C
234 18-07-2017 19:25:00 30.3 C 47 % 17.73 C
235 18-07-2017 19:30:00 30.1 C 50 % 18.53 C
236 18-07-2017 19:35:00 29.8 C 49 % 17.93 C
237 18-07-2017 19:40:00 29.6 C 54 % 19.3 C
238 18-07-2017 19:45:00 29.6 C 50 % 18.07 C
239 18-07-2017 19:50:00 29.5 C 54 % 19.21 C
240 18-07-2017 19:55:00 29.4 C 56 % 19.7 C
241 18-07-2017 20:00:00 29.3 C 57 % 19.89 C
242 18-07-2017 20:05:00 29.1 C 56 % 19.42 C
243 18-07-2017 20:10:00 28.8 C 60 % 20.26 C
244 18-07-2017 20:15:00 28.5 C 60 % 19.98 C
245 18-07-2017 20:20:00 28.2 C 60 % 19.69 C
246 18-07-2017 20:25:00 27.7 C 61 % 19.49 C
247 18-07-2017 20:30:00 27.2 C 62 % 19.28 C
248 18-07-2017 20:35:00 26.7 C 63 % 19.07 C
249 18-07-2017 20:40:00 26.2 C 65 % 19.1 C
250 18-07-2017 20:45:00 25.8 C 66 % 18.96 C
Sensor: Nr:Datum:Temp:Feuchte:Taupunkt:
Aussen-T/F 251 18-07-2017 20:50:00 25.6 C 67 % 19.01 C
252 18-07-2017 20:55:00 25.3 C 68 % 18.97 C
253 18-07-2017 21:00:00 25.1 C 68 % 18.78 C
254 18-07-2017 21:05:00 24.9 C 69 % 18.82 C
255 18-07-2017 21:10:00 24.7 C 70 % 18.86 C
256 18-07-2017 21:15:00 24.4 C 70 % 18.57 C
257 18-07-2017 21:20:00 24.3 C 71 % 18.7 C
258 18-07-2017 21:25:00 24.1 C 71 % 18.51 C
259 18-07-2017 21:30:00 23.8 C 72 % 18.45 C
260 18-07-2017 21:35:00 23.7 C 72 % 18.35 C
261 18-07-2017 21:40:00 23.5 C 73 % 18.38 C
262 18-07-2017 21:45:00 23.3 C 73 % 18.19 C
263 18-07-2017 21:50:00 23.2 C 73 % 18.09 C
264 18-07-2017 21:55:00 23.1 C 74 % 18.21 C
265 18-07-2017 22:00:00 22.9 C 74 % 18.02 C
266 18-07-2017 22:05:00 22.8 C 75 % 18.14 C
267 18-07-2017 22:10:00 22.7 C 75 % 18.04 C
268 18-07-2017 22:15:00 22.6 C 76 % 18.15 C
269 18-07-2017 22:20:00 22.4 C 76 % 17.96 C
270 18-07-2017 22:25:00 22.3 C 77 % 18.07 C
271 18-07-2017 22:30:00 22.2 C 77 % 17.98 C
272 18-07-2017 22:35:00 22.1 C 77 % 17.88 C
273 18-07-2017 22:40:00 22 C 78 % 17.99 C
274 18-07-2017 22:45:00 21.9 C 78 % 17.89 C
275 18-07-2017 22:50:00 21.8 C 78 % 17.79 C
Sensor: Nr:Datum:Temp:Feuchte:Taupunkt:
Aussen-T/F 276 18-07-2017 22:55:00 21.8 C 78 % 17.79 C
277 18-07-2017 23:00:00 21.8 C 79 % 18 C
278 18-07-2017 23:05:00 21.7 C 79 % 17.9 C
279 18-07-2017 23:10:00 21.6 C 79 % 17.8 C
280 18-07-2017 23:15:00 21.6 C 79 % 17.8 C
281 18-07-2017 23:20:00 21.5 C 80 % 17.9 C
282 18-07-2017 23:25:00 21.4 C 80 % 17.81 C
283 18-07-2017 23:30:00 21.4 C 80 % 17.81 C
284 18-07-2017 23:35:00 21.3 C 80 % 17.71 C
285 18-07-2017 23:40:00 21.3 C 80 % 17.71 C
286 18-07-2017 23:45:00 21.2 C 80 % 17.61 C
287 18-07-2017 23:50:00 21.2 C 80 % 17.61 C
288 18-07-2017 23:55:00 21.1 C 80 % 17.51 C
289 19-07-2017 00:00:00 21.1 C 80 % 17.51 C
290 19-07-2017 00:05:00 21.1 C 80 % 17.51 C
291 19-07-2017 00:10:00 21.1 C 81 % 17.71 C
292 19-07-2017 00:15:00 21.1 C 81 % 17.71 C
293 19-07-2017 00:20:00 21 C 81 % 17.61 C
294 19-07-2017 00:25:00 20.9 C 81 % 17.52 C
295 19-07-2017 00:30:00 20.9 C 81 % 17.52 C
296 19-07-2017 00:35:00 20.8 C 81 % 17.42 C
297 19-07-2017 00:40:00 20.8 C 82 % 17.61 C
298 19-07-2017 00:45:00 20.7 C 82 % 17.52 C
299 19-07-2017 00:50:00 20.6 C 82 % 17.42 C
300 19-07-2017 00:55:00 20.5 C 83 % 17.51 C
Sensor: Nr:Datum:Temp:Feuchte:Taupunkt:
Aussen-T/F 301 19-07-2017 01:00:00 20.4 C 83 % 17.42 C
302 19-07-2017 01:05:00 20.4 C 83 % 17.42 C
303 19-07-2017 01:10:00 20.4 C 83 % 17.42 C
304 19-07-2017 01:15:00 20.3 C 83 % 17.32 C
305 19-07-2017 01:20:00 20.3 C 83 % 17.32 C
306 19-07-2017 01:25:00 20.3 C 83 % 17.32 C
307 19-07-2017 01:30:00 20.2 C 83 % 17.22 C
308 19-07-2017 01:35:00 20.2 C 84 % 17.41 C
309 19-07-2017 01:40:00 20.1 C 83 % 17.12 C
310 19-07-2017 01:45:00 20 C 84 % 17.21 C
311 19-07-2017 01:50:00 19.9 C 84 % 17.12 C
312 19-07-2017 01:55:00 19.9 C 84 % 17.12 C
313 19-07-2017 02:00:00 19.9 C 84 % 17.12 C
314 19-07-2017 02:05:00 19.9 C 84 % 17.12 C
315 19-07-2017 02:10:00 19.9 C 85 % 17.3 C
316 19-07-2017 02:15:00 19.8 C 85 % 17.21 C
317 19-07-2017 02:20:00 19.8 C 85 % 17.21 C
318 19-07-2017 02:25:00 19.7 C 84 % 16.92 C
319 19-07-2017 02:30:00 19.7 C 85 % 17.11 C
320 19-07-2017 02:35:00 19.6 C 85 % 17.01 C
321 19-07-2017 02:40:00 19.5 C 85 % 16.91 C
322 19-07-2017 02:45:00 19.4 C 85 % 16.81 C
323 19-07-2017 02:50:00 19.3 C 86 % 16.9 C
324 19-07-2017 02:55:00 19.3 C 86 % 16.9 C
325 19-07-2017 03:00:00 19.2 C 86 % 16.8 C
Sensor: Nr:Datum:Temp:Feuchte:Taupunkt:
Aussen-T/F 326 19-07-2017 03:05:00 19.1 C 86 % 16.7 C
327 19-07-2017 03:10:00 19.1 C 87 % 16.89 C
328 19-07-2017 03:15:00 19 C 87 % 16.79 C
329 19-07-2017 03:20:00 18.9 C 87 % 16.69 C
330 19-07-2017 03:25:00 18.9 C 87 % 16.69 C
331 19-07-2017 03:30:00 18.8 C 87 % 16.59 C
332 19-07-2017 03:35:00 18.8 C 87 % 16.59 C
333 19-07-2017 03:40:00 18.8 C 88 % 16.77 C
334 19-07-2017 03:45:00 18.7 C 88 % 16.67 C
335 19-07-2017 03:50:00 18.7 C 88 % 16.67 C
336 19-07-2017 03:55:00 18.6 C 88 % 16.57 C
337 19-07-2017 04:00:00 18.6 C 88 % 16.57 C
338 19-07-2017 04:05:00 18.6 C 89 % 16.75 C
339 19-07-2017 04:10:00 18.6 C 89 % 16.75 C
340 19-07-2017 04:15:00 18.6 C 89 % 16.75 C
341 19-07-2017 04:20:00 18.6 C 89 % 16.75 C
342 19-07-2017 04:25:00 18.6 C 89 % 16.75 C
343 19-07-2017 04:30:00 18.5 C 89 % 16.65 C
344 19-07-2017 04:35:00 18.5 C 89 % 16.65 C
345 19-07-2017 04:40:00 18.4 C 89 % 16.55 C
346 19-07-2017 04:45:00 18.4 C 89 % 16.55 C
347 19-07-2017 04:50:00 18.4 C 89 % 16.55 C
348 19-07-2017 04:55:00 18.4 C 89 % 16.55 C
349 19-07-2017 05:00:00 18.4 C 89 % 16.55 C
350 19-07-2017 05:05:00 18.4 C 89 % 16.55 C
Sensor: Nr:Datum:Temp:Feuchte:Taupunkt:
Aussen-T/F 351 19-07-2017 05:10:00 18.3 C 89 % 16.46 C
352 19-07-2017 05:15:00 18.2 C 89 % 16.36 C
353 19-07-2017 05:20:00 18.1 C 89 % 16.26 C
354 19-07-2017 05:25:00 18 C 89 % 16.16 C
355 19-07-2017 05:30:00 17.9 C 90 % 16.24 C
356 19-07-2017 05:35:00 17.8 C 90 % 16.14 C
357 19-07-2017 05:40:00 17.7 C 90 % 16.04 C
358 19-07-2017 05:45:00 17.7 C 90 % 16.04 C
359 19-07-2017 05:50:00 17.6 C 90 % 15.94 C
360 19-07-2017 05:55:00 17.6 C 91 % 16.11 C
361 19-07-2017 06:00:00 17.6 C 91 % 16.11 C
362 19-07-2017 06:05:00 17.6 C 91 % 16.11 C
363 19-07-2017 06:10:00 17.6 C 91 % 16.11 C
364 19-07-2017 06:15:00 17.6 C 92 % 16.28 C
365 19-07-2017 06:20:00 17.6 C 92 % 16.28 C
366 19-07-2017 06:25:00 17.6 C 92 % 16.28 C
367 19-07-2017 06:30:00 17.6 C 92 % 16.28 C
368 19-07-2017 06:35:00 17.7 C 92 % 16.38 C
369 19-07-2017 06:40:00 17.6 C 92 % 16.28 C
370 19-07-2017 06:45:00 17.6 C 92 % 16.28 C
371 19-07-2017 06:50:00 17.7 C 93 % 16.55 C
372 19-07-2017 06:55:00 17.7 C 93 % 16.55 C
373 19-07-2017 07:00:00 17.7 C 92 % 16.38 C
374 19-07-2017 07:05:00 17.7 C 93 % 16.55 C
375 19-07-2017 07:10:00 17.8 C 93 % 16.65 C
Sensor: Nr:Datum:Temp:Feuchte:Taupunkt:
Aussen-T/F 376 19-07-2017 07:15:00 17.8 C 93 % 16.65 C
377 19-07-2017 07:20:00 17.8 C 93 % 16.65 C
378 19-07-2017 07:25:00 17.8 C 93 % 16.65 C
379 19-07-2017 07:30:00 17.9 C 93 % 16.75 C
380 19-07-2017 07:35:00 17.9 C 93 % 16.75 C
381 19-07-2017 07:40:00 17.9 C 93 % 16.75 C
382 19-07-2017 07:45:00 18 C 93 % 16.85 C
383 19-07-2017 07:50:00 18.1 C 93 % 16.95 C
384 19-07-2017 07:55:00 18.1 C 93 % 16.95 C
385 19-07-2017 08:00:00 18.2 C 93 % 17.05 C
386 19-07-2017 08:05:00 18.2 C 92 % 16.88 C
387 19-07-2017 08:10:00 18.3 C 92 % 16.98 C
388 19-07-2017 08:15:00 18.4 C 93 % 17.25 C
389 19-07-2017 08:20:00 18.4 C 93 % 17.25 C
390 19-07-2017 08:25:00 18.6 C 93 % 17.45 C
391 19-07-2017 08:30:00 18.7 C 92 % 17.37 C
392 19-07-2017 08:35:00 18.8 C 92 % 17.47 C
393 19-07-2017 08:40:00 18.8 C 92 % 17.47 C
394 19-07-2017 08:45:00 18.9 C 92 % 17.57 C
395 19-07-2017 08:50:00 19.1 C 92 % 17.77 C
396 19-07-2017 08:55:00 19.2 C 92 % 17.87 C
397 19-07-2017 09:00:00 19.3 C 92 % 17.97 C
398 19-07-2017 09:05:00 19.4 C 91 % 17.89 C
399 19-07-2017 09:10:00 19.6 C 91 % 18.09 C
400 19-07-2017 09:15:00 19.7 C 91 % 18.19 C
Sensor: Nr:Datum:Temp:Feuchte:Taupunkt:
Aussen-T/F 401 19-07-2017 09:20:00 19.8 C 91 % 18.29 C
402 19-07-2017 09:25:00 20 C 90 % 18.31 C
403 19-07-2017 09:30:00 20.3 C 90 % 18.61 C
404 19-07-2017 09:35:00 20.6 C 89 % 18.72 C
405 19-07-2017 09:40:00 20.7 C 89 % 18.82 C
406 19-07-2017 09:45:00 20.9 C 88 % 18.84 C
407 19-07-2017 09:50:00 21.1 C 88 % 19.03 C
408 19-07-2017 09:55:00 21.2 C 88 % 19.13 C
409 19-07-2017 10:00:00 21.3 C 86 % 18.86 C
410 19-07-2017 10:05:00 21.7 C 86 % 19.25 C
411 19-07-2017 10:10:00 21.8 C 83 % 18.78 C
412 19-07-2017 10:15:00 22.2 C 83 % 19.17 C
413 19-07-2017 10:20:00 22.5 C 83 % 19.47 C
414 19-07-2017 10:25:00 22.9 C 82 % 19.66 C
415 19-07-2017 10:30:00 23.4 C 81 % 19.95 C
416 19-07-2017 10:35:00 23.8 C 78 % 19.73 C
417 19-07-2017 10:40:00 24.2 C 75 % 19.49 C
418 19-07-2017 10:45:00 24.8 C 73 % 19.63 C
419 19-07-2017 10:50:00 25.2 C 71 % 19.56 C
420 19-07-2017 10:55:00 25.5 C 72 % 20.08 C
421 19-07-2017 11:00:00 25.6 C 71 % 19.95 C
422 19-07-2017 11:05:00 25.7 C 72 % 20.27 C
423 19-07-2017 11:10:00 25.6 C 72 % 20.17 C
424 19-07-2017 11:15:00 25.7 C 65 % 18.62 C
425 19-07-2017 11:20:00 26.1 C 65 % 19 C
Sensor: Nr:Datum:Temp:Feuchte:Taupunkt:
Aussen-T/F 426 19-07-2017 11:25:00 26.4 C 68 % 20.01 C
427 19-07-2017 11:30:00 26.6 C 62 % 18.72 C
428 19-07-2017 11:35:00 26.8 C 62 % 18.91 C
429 19-07-2017 11:40:00 26.9 C 65 % 19.76 C
430 19-07-2017 11:45:00 26.9 C 62 % 19 C
431 19-07-2017 11:50:00 26.9 C 62 % 19 C
432 19-07-2017 11:55:00 27.1 C 58 % 18.12 C
433 19-07-2017 12:00:00 27.4 C 59 % 18.68 C
434 19-07-2017 12:05:00 27.6 C 58 % 18.59 C
435 19-07-2017 12:10:00 27.9 C 57 % 18.59 C
436 19-07-2017 12:15:00 28.1 C 61 % 19.87 C
437 19-07-2017 12:20:00 28.2 C 60 % 19.69 C
438 19-07-2017 12:25:00 28.2 C 60 % 19.69 C
439 19-07-2017 12:30:00 28.2 C 59 % 19.42 C
440 19-07-2017 12:35:00 28.2 C 56 % 18.59 C
441 19-07-2017 12:40:00 28.3 C 55 % 18.39 C
442 19-07-2017 12:45:00 28.5 C 55 % 18.58 C
443 19-07-2017 12:50:00 28.8 C 55 % 18.86 C
444 19-07-2017 12:55:00 28.9 C 54 % 18.66 C
445 19-07-2017 13:00:00 29.2 C 52 % 18.33 C
446 19-07-2017 13:05:00 29.5 C 51 % 18.3 C
447 19-07-2017 13:10:00 29.7 C 51 % 18.48 C
448 19-07-2017 13:15:00 29.9 C 50 % 18.35 C
449 19-07-2017 13:20:00 30 C 51 % 18.75 C
450 19-07-2017 13:25:00 30 C 53 % 19.37 C
Sensor: Nr:Datum:Temp:Feuchte:Taupunkt:
Aussen-T/F 451 19-07-2017 13:30:00 30.1 C 57 % 20.64 C
452 19-07-2017 13:35:00 29.9 C 52 % 18.97 C
453 19-07-2017 13:40:00 29.8 C 57 % 20.36 C
454 19-07-2017 13:45:00 29.8 C 52 % 18.88 C
455 19-07-2017 13:50:00 29.9 C 50 % 18.35 C
456 19-07-2017 13:55:00 30.1 C 50 % 18.53 C
457 19-07-2017 14:00:00 30.3 C 49 % 18.39 C
458 19-07-2017 14:05:00 30.5 C 50 % 18.9 C
459 19-07-2017 14:10:00 30.7 C 49 % 18.75 C
460 19-07-2017 14:15:00 30.8 C 50 % 19.17 C
461 19-07-2017 14:20:00 31.1 C 49 % 19.12 C
462 19-07-2017 14:25:00 31.4 C 46 % 18.38 C
463 19-07-2017 14:30:00 31.8 C 48 % 19.43 C
464 19-07-2017 14:35:00 31.9 C 44 % 18.12 C
465 19-07-2017 14:40:00 32.1 C 45 % 18.66 C
466 19-07-2017 14:45:00 32.3 C 48 % 19.88 C
467 19-07-2017 14:50:00 32.4 C 46 % 19.29 C
468 19-07-2017 14:55:00 32.5 C 43 % 18.3 C
469 19-07-2017 15:00:00 32.6 C 45 % 19.12 C
470 19-07-2017 15:05:00 32.7 C 46 % 19.56 C
471 19-07-2017 15:10:00 32.6 C 49 % 20.49 C
472 19-07-2017 15:15:00 32.4 C 48 % 19.97 C
473 19-07-2017 15:20:00 32.4 C 46 % 19.29 C
474 19-07-2017 15:25:00 32.7 C 45 % 19.21 C
475 19-07-2017 15:30:00 33.1 C 44 % 19.2 C
Sensor: Nr:Datum:Temp:Feuchte:Taupunkt:
Aussen-T/F 476 19-07-2017 15:35:00 33.4 C 43 % 19.11 C
477 19-07-2017 15:40:00 33.7 C 43 % 19.37 C
478 19-07-2017 15:45:00 34.1 C 42 % 19.35 C
479 19-07-2017 15:50:00 34.2 C 41 % 19.06 C
480 19-07-2017 15:55:00 34.2 C 41 % 19.06 C
481 19-07-2017 16:00:00 33.6 C 42 % 18.91 C
482 19-07-2017 16:05:00 33.2 C 45 % 19.66 C
483 19-07-2017 16:10:00 32.9 C 46 % 19.74 C
484 19-07-2017 16:15:00 32.8 C 46 % 19.65 C
485 19-07-2017 16:20:00 32.6 C 45 % 19.12 C
486 19-07-2017 16:25:00 32.2 C 48 % 19.79 C
487 19-07-2017 16:30:00 31.9 C 47 % 19.18 C
488 19-07-2017 16:35:00 31.5 C 46 % 18.47 C
489 19-07-2017 16:40:00 31.1 C 49 % 19.12 C
490 19-07-2017 16:45:00 30.7 C 48 % 18.43 C
491 19-07-2017 16:50:00 30.3 C 48 % 18.06 C
492 19-07-2017 16:55:00 29.9 C 50 % 18.35 C
493 19-07-2017 17:00:00 29.6 C 52 % 18.7 C
494 19-07-2017 17:05:00 29.3 C 53 % 18.73 C
495 19-07-2017 17:10:00 29 C 53 % 18.45 C
496 19-07-2017 17:15:00 28.8 C 52 % 17.96 C
497 19-07-2017 17:20:00 28.7 C 53 % 18.17 C
498 19-07-2017 17:25:00 28.7 C 52 % 17.87 C
499 19-07-2017 17:30:00 28.8 C 53 % 18.26 C
500 19-07-2017 17:35:00 28.3 C 55 % 18.39 C
Sensor: Nr:Datum:Temp:Feuchte:Taupunkt:
Aussen-T/F 501 19-07-2017 17:40:00 27.5 C 56 % 17.94 C
502 19-07-2017 17:45:00 26.9 C 58 % 17.94 C
503 19-07-2017 17:50:00 26.4 C 59 % 17.74 C
504 19-07-2017 17:55:00 26.2 C 59 % 17.55 C
505 19-07-2017 18:00:00 25.9 C 59 % 17.27 C
506 19-07-2017 18:05:00 25.7 C 59 % 17.09 C
507 19-07-2017 18:10:00 25.6 C 60 % 17.26 C
508 19-07-2017 18:15:00 25.6 C 59 % 16.99 C
509 19-07-2017 18:20:00 25.7 C 60 % 17.35 C
510 19-07-2017 18:25:00 25.7 C 60 % 17.35 C
511 19-07-2017 18:30:00 25.8 C 60 % 17.45 C
512 19-07-2017 18:35:00 25.7 C 60 % 17.35 C
513 19-07-2017 18:40:00 25.7 C 60 % 17.35 C
514 19-07-2017 18:45:00 25.7 C 60 % 17.35 C
515 19-07-2017 18:50:00 25.6 C 61 % 17.52 C
516 19-07-2017 18:55:00 25.6 C 61 % 17.52 C
517 19-07-2017 19:00:00 25.8 C 60 % 17.45 C
518 19-07-2017 19:05:00 26 C 60 % 17.63 C
519 19-07-2017 19:10:00 26.1 C 60 % 17.73 C
520 19-07-2017 19:15:00 26.2 C 60 % 17.82 C
521 19-07-2017 19:20:00 26.1 C 60 % 17.73 C
522 19-07-2017 19:25:00 26 C 61 % 17.9 C
523 19-07-2017 19:30:00 25.9 C 61 % 17.8 C
524 19-07-2017 19:35:00 25.8 C 61 % 17.71 C
525 19-07-2017 19:40:00 25.6 C 62 % 17.78 C
Sensor: Nr:Datum:Temp:Feuchte:Taupunkt:
Aussen-T/F 526 19-07-2017 19:45:00 25.4 C 63 % 17.84 C
527 19-07-2017 19:50:00 25.3 C 64 % 18 C
528 19-07-2017 19:55:00 25.3 C 63 % 17.75 C
529 19-07-2017 20:00:00 25.2 C 64 % 17.9 C
530 19-07-2017 20:05:00 25.2 C 64 % 17.9 C
531 19-07-2017 20:10:00 25.2 C 64 % 17.9 C
532 19-07-2017 20:15:00 25.1 C 65 % 18.06 C
533 19-07-2017 20:20:00 25.1 C 66 % 18.3 C
534 19-07-2017 20:25:00 25 C 65 % 17.96 C
535 19-07-2017 20:30:00 25.1 C 66 % 18.3 C
536 19-07-2017 20:35:00 25.1 C 67 % 18.54 C
537 19-07-2017 20:40:00 25.1 C 69 % 19.01 C
538 19-07-2017 20:45:00 25 C 68 % 18.68 C
539 19-07-2017 20:50:00 24.9 C 70 % 19.05 C
540 19-07-2017 20:55:00 24.6 C 70 % 18.76 C
541 19-07-2017 21:00:00 24.3 C 71 % 18.7 C
542 19-07-2017 21:05:00 24 C 72 % 18.64 C
543 19-07-2017 21:10:00 23.7 C 73 % 18.57 C
544 19-07-2017 21:15:00 23.4 C 74 % 18.5 C
545 19-07-2017 21:20:00 23.1 C 75 % 18.43 C
546 19-07-2017 21:25:00 22.8 C 76 % 18.35 C
547 19-07-2017 21:30:00 22.4 C 77 % 18.17 C
548 19-07-2017 21:35:00 22.2 C 78 % 18.18 C
549 19-07-2017 21:40:00 22.1 C 78 % 18.08 C
550 19-07-2017 21:45:00 21.8 C 79 % 18 C
Sensor: Nr:Datum:Temp:Feuchte:Taupunkt:
Aussen-T/F 551 19-07-2017 21:50:00 21.7 C 80 % 18.1 C
552 19-07-2017 21:55:00 21.6 C 80 % 18 C
553 19-07-2017 22:00:00 21.4 C 80 % 17.81 C
554 19-07-2017 22:05:00 21.3 C 81 % 17.91 C
555 19-07-2017 22:10:00 21.2 C 81 % 17.81 C
556 19-07-2017 22:15:00 21.1 C 81 % 17.71 C
557 19-07-2017 22:20:00 21.1 C 82 % 17.91 C
558 19-07-2017 22:25:00 20.9 C 82 % 17.71 C
559 19-07-2017 22:30:00 20.8 C 82 % 17.61 C
560 19-07-2017 22:35:00 20.8 C 82 % 17.61 C
561 19-07-2017 22:40:00 20.7 C 83 % 17.71 C
562 19-07-2017 22:45:00 20.6 C 83 % 17.61 C
563 19-07-2017 22:50:00 20.5 C 83 % 17.51 C
564 19-07-2017 22:55:00 20.4 C 83 % 17.42 C
565 19-07-2017 23:00:00 20.4 C 83 % 17.42 C
566 19-07-2017 23:05:00 20.4 C 83 % 17.42 C
567 19-07-2017 23:10:00 20.3 C 83 % 17.32 C
568 19-07-2017 23:15:00 20.3 C 84 % 17.51 C
569 19-07-2017 23:20:00 20.3 C 84 % 17.51 C
570 19-07-2017 23:25:00 20.2 C 84 % 17.41 C
571 19-07-2017 23:30:00 20.2 C 85 % 17.6 C
572 19-07-2017 23:35:00 20.1 C 85 % 17.5 C
573 19-07-2017 23:40:00 20.1 C 85 % 17.5 C
574 19-07-2017 23:45:00 20.1 C 85 % 17.5 C
575 19-07-2017 23:50:00 20 C 85 % 17.4 C
Sensor: Nr:Datum:Temp:Feuchte:Taupunkt:
Aussen-T/F 576 19-07-2017 23:55:00 20 C 86 % 17.59 C
577 20-07-2017 00:00:00 19.9 C 87 % 17.67 C
578 20-07-2017 00:05:00 19.9 C 87 % 17.67 C
579 20-07-2017 00:10:00 19.9 C 87 % 17.67 C
580 20-07-2017 00:15:00 19.9 C 87 % 17.67 C
581 20-07-2017 00:20:00 19.9 C 87 % 17.67 C
582 20-07-2017 00:25:00 20 C 87 % 17.77 C
583 20-07-2017 00:30:00 20 C 87 % 17.77 C
584 20-07-2017 00:35:00 19.9 C 87 % 17.67 C
585 20-07-2017 00:40:00 19.9 C 87 % 17.67 C
586 20-07-2017 00:45:00 19.9 C 87 % 17.67 C
587 20-07-2017 00:50:00 19.9 C 87 % 17.67 C
588 20-07-2017 00:55:00 19.9 C 87 % 17.67 C
589 20-07-2017 01:00:00 20 C 87 % 17.77 C
590 20-07-2017 01:05:00 19.9 C 87 % 17.67 C
591 20-07-2017 01:10:00 19.9 C 87 % 17.67 C
592 20-07-2017 01:15:00 19.9 C 87 % 17.67 C
593 20-07-2017 01:20:00 19.9 C 88 % 17.85 C
594 20-07-2017 01:25:00 19.9 C 87 % 17.67 C
595 20-07-2017 01:30:00 19.9 C 88 % 17.85 C
596 20-07-2017 01:35:00 19.9 C 88 % 17.85 C
597 20-07-2017 01:40:00 19.9 C 88 % 17.85 C
598 20-07-2017 01:45:00 19.9 C 88 % 17.85 C
599 20-07-2017 01:50:00 19.8 C 88 % 17.75 C
600 20-07-2017 01:55:00 19.8 C 88 % 17.75 C
Sensor: Nr:Datum:Temp:Feuchte:Taupunkt:
Aussen-T/F 601 20-07-2017 02:00:00 19.8 C 88 % 17.75 C
602 20-07-2017 02:05:00 19.8 C 88 % 17.75 C
603 20-07-2017 02:10:00 19.8 C 89 % 17.93 C
604 20-07-2017 02:15:00 19.8 C 89 % 17.93 C
605 20-07-2017 02:20:00 19.8 C 89 % 17.93 C
606 20-07-2017 02:25:00 19.8 C 89 % 17.93 C
607 20-07-2017 02:30:00 19.8 C 89 % 17.93 C
608 20-07-2017 02:35:00 19.8 C 89 % 17.93 C
609 20-07-2017 02:40:00 19.8 C 89 % 17.93 C
610 20-07-2017 02:45:00 19.8 C 90 % 18.11 C
611 20-07-2017 02:50:00 19.8 C 90 % 18.11 C
612 20-07-2017 02:55:00 19.8 C 90 % 18.11 C
613 20-07-2017 03:00:00 19.8 C 90 % 18.11 C
614 20-07-2017 03:05:00 19.7 C 90 % 18.01 C
615 20-07-2017 03:10:00 19.7 C 90 % 18.01 C
616 20-07-2017 03:15:00 19.7 C 90 % 18.01 C
617 20-07-2017 03:20:00 19.6 C 90 % 17.91 C
618 20-07-2017 03:25:00 19.6 C 90 % 17.91 C
619 20-07-2017 03:30:00 19.6 C 90 % 17.91 C
620 20-07-2017 03:35:00 19.6 C 91 % 18.09 C
621 20-07-2017 03:40:00 19.5 C 91 % 17.99 C
622 20-07-2017 03:45:00 19.5 C 91 % 17.99 C
623 20-07-2017 03:50:00 19.5 C 91 % 17.99 C
624 20-07-2017 03:55:00 19.5 C 91 % 17.99 C
625 20-07-2017 04:00:00 19.5 C 92 % 18.17 C
Sensor: Nr:Datum:Temp:Feuchte:Taupunkt:
Aussen-T/F 626 20-07-2017 04:05:00 19.5 C 92 % 18.17 C
627 20-07-2017 04:10:00 19.6 C 92 % 18.26 C
628 20-07-2017 04:15:00 19.6 C 92 % 18.26 C
629 20-07-2017 04:20:00 19.6 C 92 % 18.26 C
630 20-07-2017 04:25:00 19.6 C 92 % 18.26 C
631 20-07-2017 04:30:00 19.6 C 92 % 18.26 C
632 20-07-2017 04:35:00 19.5 C 92 % 18.17 C
633 20-07-2017 04:40:00 19.6 C 93 % 18.44 C
634 20-07-2017 04:45:00 19.5 C 93 % 18.34 C
635 20-07-2017 04:50:00 19.5 C 93 % 18.34 C
636 20-07-2017 04:55:00 19.5 C 93 % 18.34 C
637 20-07-2017 05:00:00 19.4 C 93 % 18.24 C
638 20-07-2017 05:05:00 19.4 C 93 % 18.24 C
639 20-07-2017 05:10:00 19.4 C 93 % 18.24 C
640 20-07-2017 05:15:00 19.4 C 93 % 18.24 C
641 20-07-2017 05:20:00 19.4 C 93 % 18.24 C
642 20-07-2017 05:25:00 19.4 C 93 % 18.24 C
643 20-07-2017 05:30:00 19.4 C 94 % 18.41 C
644 20-07-2017 05:35:00 19.4 C 94 % 18.41 C
645 20-07-2017 05:40:00 19.4 C 93 % 18.24 C
646 20-07-2017 05:45:00 19.4 C 94 % 18.41 C
647 20-07-2017 05:50:00 19.4 C 94 % 18.41 C
648 20-07-2017 05:55:00 19.3 C 94 % 18.31 C
649 20-07-2017 06:00:00 19.3 C 94 % 18.31 C
650 20-07-2017 06:05:00 19.3 C 94 % 18.31 C
Sensor: Nr:Datum:Temp:Feuchte:Taupunkt:
Aussen-T/F 651 20-07-2017 06:10:00 19.3 C 94 % 18.31 C
652 20-07-2017 06:15:00 19.3 C 94 % 18.31 C
653 20-07-2017 06:20:00 19.3 C 94 % 18.31 C
654 20-07-2017 06:25:00 19.3 C 94 % 18.31 C
655 20-07-2017 06:30:00 19.3 C 94 % 18.31 C
656 20-07-2017 06:35:00 19.3 C 94 % 18.31 C
657 20-07-2017 06:40:00 19.3 C 94 % 18.31 C
658 20-07-2017 06:45:00 19.3 C 95 % 18.48 C
659 20-07-2017 06:50:00 19.3 C 95 % 18.48 C
660 20-07-2017 06:55:00 19.3 C 95 % 18.48 C
661 20-07-2017 07:00:00 19.3 C 95 % 18.48 C
662 20-07-2017 07:05:00 19.3 C 95 % 18.48 C
663 20-07-2017 07:10:00 19.3 C 95 % 18.48 C
664 20-07-2017 07:15:00 19.3 C 95 % 18.48 C
665 20-07-2017 07:20:00 19.3 C 95 % 18.48 C
666 20-07-2017 07:25:00 19.2 C 95 % 18.38 C
667 20-07-2017 07:30:00 19.2 C 95 % 18.38 C
668 20-07-2017 07:35:00 19.2 C 95 % 18.38 C
669 20-07-2017 07:40:00 19.2 C 95 % 18.38 C
670 20-07-2017 07:45:00 19.2 C 95 % 18.38 C
671 20-07-2017 07:50:00 19.2 C 95 % 18.38 C
672 20-07-2017 07:55:00 19.3 C 95 % 18.48 C
673 20-07-2017 08:00:00 19.3 C 95 % 18.48 C
674 20-07-2017 08:05:00 19.3 C 95 % 18.48 C
675 20-07-2017 08:10:00 19.3 C 95 % 18.48 C
Sensor: Nr:Datum:Temp:Feuchte:Taupunkt:
Aussen-T/F 676 20-07-2017 08:15:00 19.3 C 95 % 18.48 C
677 20-07-2017 08:20:00 19.3 C 95 % 18.48 C
678 20-07-2017 08:25:00 19.4 C 96 % 18.75 C
679 20-07-2017 08:30:00 19.4 C 96 % 18.75 C
680 20-07-2017 08:35:00 19.4 C 96 % 18.75 C
681 20-07-2017 08:40:00 19.5 C 96 % 18.84 C
682 20-07-2017 08:45:00 19.6 C 96 % 18.94 C
683 20-07-2017 08:50:00 19.6 C 96 % 18.94 C
684 20-07-2017 08:55:00 19.6 C 96 % 18.94 C
685 20-07-2017 09:00:00 19.7 C 96 % 19.04 C
686 20-07-2017 09:05:00 19.7 C 96 % 19.04 C
687 20-07-2017 09:10:00 19.7 C 96 % 19.04 C
688 20-07-2017 09:15:00 19.8 C 96 % 19.14 C
689 20-07-2017 09:20:00 19.8 C 96 % 19.14 C
690 20-07-2017 09:25:00 19.8 C 96 % 19.14 C
691 20-07-2017 09:30:00 19.9 C 96 % 19.24 C
692 20-07-2017 09:35:00 20 C 96 % 19.34 C
693 20-07-2017 09:40:00 20.1 C 96 % 19.44 C
694 20-07-2017 09:45:00 20.2 C 96 % 19.54 C
695 20-07-2017 09:50:00 20.4 C 96 % 19.74 C
696 20-07-2017 09:55:00 20.6 C 96 % 19.94 C
697 20-07-2017 10:00:00 20.6 C 96 % 19.94 C
698 20-07-2017 10:05:00 20.7 C 96 % 20.04 C
699 20-07-2017 10:10:00 20.7 C 96 % 20.04 C
700 20-07-2017 10:15:00 20.6 C 96 % 19.94 C
Sensor: Nr:Datum:Temp:Feuchte:Taupunkt:
Aussen-T/F 701 20-07-2017 10:20:00 20.6 C 96 % 19.94 C
702 20-07-2017 10:25:00 20.7 C 96 % 20.04 C
703 20-07-2017 10:30:00 20.6 C 96 % 19.94 C
704 20-07-2017 10:35:00 20.7 C 96 % 20.04 C
705 20-07-2017 10:40:00 20.9 C 96 % 20.24 C
706 20-07-2017 10:45:00 20.9 C 96 % 20.24 C
707 20-07-2017 10:50:00 20.8 C 96 % 20.14 C
708 20-07-2017 10:55:00 20.7 C 95 % 19.87 C
709 20-07-2017 11:00:00 20.6 C 95 % 19.77 C
710 20-07-2017 11:05:00 20.7 C 95 % 19.87 C
711 20-07-2017 11:10:00 20.7 C 95 % 19.87 C
712 20-07-2017 11:15:00 20.7 C 95 % 19.87 C
713 20-07-2017 11:20:00 20.8 C 95 % 19.97 C
714 20-07-2017 11:25:00 20.9 C 96 % 20.24 C
715 20-07-2017 11:30:00 21.1 C 95 % 20.27 C
716 20-07-2017 11:35:00 21.1 C 95 % 20.27 C
717 20-07-2017 11:40:00 21.1 C 94 % 20.1 C
718 20-07-2017 11:45:00 21.1 C 94 % 20.1 C
719 20-07-2017 11:50:00 21.1 C 93 % 19.92 C
720 20-07-2017 11:55:00 21.2 C 93 % 20.02 C
721 20-07-2017 12:00:00 21.3 C 93 % 20.12 C
722 20-07-2017 12:05:00 21.4 C 92 % 20.05 C
723 20-07-2017 12:10:00 21.6 C 92 % 20.24 C
724 20-07-2017 12:15:00 21.8 C 91 % 20.26 C
725 20-07-2017 12:20:00 21.8 C 90 % 20.09 C
Sensor: Nr:Datum:Temp:Feuchte:Taupunkt:
Aussen-T/F 726 20-07-2017 12:25:00 22 C 89 % 20.1 C
727 20-07-2017 12:30:00 22.1 C 88 % 20.02 C
728 20-07-2017 12:35:00 22.2 C 88 % 20.12 C
729 20-07-2017 12:40:00 22.1 C 87 % 19.83 C
730 20-07-2017 12:45:00 22.1 C 88 % 20.02 C
731 20-07-2017 12:50:00 22.2 C 86 % 19.75 C
732 20-07-2017 12:55:00 22.3 C 85 % 19.65 C
733 20-07-2017 13:00:00 22.5 C 83 % 19.47 C
734 20-07-2017 13:05:00 22.7 C 83 % 19.66 C
735 20-07-2017 13:10:00 22.8 C 84 % 19.95 C
736 20-07-2017 13:15:00 22.8 C 84 % 19.95 C
737 20-07-2017 13:20:00 22.6 C 80 % 18.97 C
738 20-07-2017 13:25:00 22.4 C 80 % 18.78 C
739 20-07-2017 13:30:00 22.4 C 82 % 19.17 C
740 20-07-2017 13:35:00 22.3 C 81 % 18.88 C
741 20-07-2017 13:40:00 22.4 C 78 % 18.37 C
742 20-07-2017 13:45:00 22.8 C 78 % 18.76 C
743 20-07-2017 13:50:00 23.1 C 77 % 18.85 C
744 20-07-2017 13:55:00 23.3 C 78 % 19.25 C
745 20-07-2017 14:00:00 23.3 C 75 % 18.62 C
746 20-07-2017 14:05:00 23.3 C 72 % 17.97 C
747 20-07-2017 14:10:00 23.3 C 69 % 17.29 C
748 20-07-2017 14:15:00 23.4 C 73 % 18.28 C
749 20-07-2017 14:20:00 23.6 C 70 % 17.81 C
750 20-07-2017 14:25:00 23.8 C 71 % 18.22 C
Sensor: Nr:Datum:Temp:Feuchte:Taupunkt:
Aussen-T/F 751 20-07-2017 14:30:00 24.1 C 66 % 17.35 C
752 20-07-2017 14:35:00 24.3 C 68 % 18.01 C
753 20-07-2017 14:40:00 24.5 C 66 % 17.73 C
754 20-07-2017 14:45:00 24.6 C 64 % 17.34 C
755 20-07-2017 14:50:00 24.6 C 65 % 17.58 C
756 20-07-2017 14:55:00 24.6 C 65 % 17.58 C
757 20-07-2017 15:00:00 24.6 C 64 % 17.34 C
758 20-07-2017 15:05:00 24.7 C 66 % 17.92 C
759 20-07-2017 15:10:00 24.9 C 68 % 18.59 C
760 20-07-2017 15:15:00 25.3 C 63 % 17.75 C
761 20-07-2017 15:20:00 25.4 C 64 % 18.09 C
762 20-07-2017 15:25:00 25.4 C 63 % 17.84 C
763 20-07-2017 15:30:00 25.2 C 63 % 17.65 C
764 20-07-2017 15:35:00 25 C 65 % 17.96 C
765 20-07-2017 15:40:00 25.2 C 65 % 18.15 C
766 20-07-2017 15:45:00 25.8 C 63 % 18.22 C
767 20-07-2017 15:50:00 26.4 C 59 % 17.74 C
768 20-07-2017 15:55:00 26.7 C 56 % 17.19 C
769 20-07-2017 16:00:00 26.3 C 58 % 17.38 C
770 20-07-2017 16:05:00 25.9 C 56 % 16.45 C
771 20-07-2017 16:10:00 26.1 C 59 % 17.46 C
772 20-07-2017 16:15:00 26.5 C 62 % 18.62 C
773 20-07-2017 16:20:00 26.7 C 64 % 19.32 C
774 20-07-2017 16:25:00 27 C 61 % 18.83 C
775 20-07-2017 16:30:00 27.2 C 56 % 17.66 C
Sensor: Nr:Datum:Temp:Feuchte:Taupunkt:
Aussen-T/F 776 20-07-2017 16:35:00 27 C 55 % 17.19 C
777 20-07-2017 16:40:00 26.6 C 59 % 17.93 C
778 20-07-2017 16:45:00 26.2 C 63 % 18.6 C
779 20-07-2017 16:50:00 26.2 C 56 % 16.73 C
780 20-07-2017 16:55:00 26.7 C 56 % 17.19 C
781 20-07-2017 17:00:00 26.9 C 57 % 17.66 C
782 20-07-2017 17:05:00 27.1 C 56 % 17.57 C
783 20-07-2017 17:10:00 27.3 C 52 % 16.58 C
784 20-07-2017 17:15:00 27.7 C 49 % 16.01 C
785 20-07-2017 17:20:00 27.8 C 49 % 16.11 C
786 20-07-2017 17:25:00 28.1 C 53 % 17.62 C
787 20-07-2017 17:30:00 28.3 C 53 % 17.8 C
788 20-07-2017 17:35:00 28.3 C 46 % 15.57 C
789 20-07-2017 17:40:00 28.1 C 47 % 15.73 C
790 20-07-2017 17:45:00 27.3 C 48 % 15.33 C
791 20-07-2017 17:50:00 27.1 C 51 % 16.09 C
792 20-07-2017 17:55:00 26.7 C 52 % 16.03 C
793 20-07-2017 18:00:00 26.6 C 54 % 16.53 C
794 20-07-2017 18:05:00 26.3 C 57 % 17.1 C
795 20-07-2017 18:10:00 25.8 C 59 % 17.18 C
796 20-07-2017 18:15:00 25.3 C 54 % 15.33 C
797 20-07-2017 18:20:00 25 C 59 % 16.43 C
798 20-07-2017 18:25:00 25 C 61 % 16.96 C
799 20-07-2017 18:30:00 25.5 C 57 % 16.36 C
800 20-07-2017 18:35:00 26.3 C 51 % 15.36 C
Sensor: Nr:Datum:Temp:Feuchte:Taupunkt:
Aussen-T/F 801 20-07-2017 18:40:00 26.9 C 47 % 14.64 C
802 20-07-2017 18:45:00 27.1 C 46 % 14.49 C
803 20-07-2017 18:50:00 27.2 C 46 % 14.58 C
804 20-07-2017 18:55:00 27.1 C 47 % 14.82 C
805 20-07-2017 19:00:00 26.7 C 48 % 14.78 C
806 20-07-2017 19:05:00 26.3 C 50 % 15.05 C
807 20-07-2017 19:10:00 26.6 C 48 % 14.69 C
808 20-07-2017 19:15:00 26.8 C 48 % 14.87 C
809 20-07-2017 19:20:00 26.8 C 47 % 14.55 C
810 20-07-2017 19:25:00 26.8 C 51 % 15.82 C
811 20-07-2017 19:30:00 26.7 C 49 % 15.1 C
812 20-07-2017 19:35:00 26.6 C 50 % 15.32 C
813 20-07-2017 19:40:00 26.3 C 49 % 14.74 C
814 20-07-2017 19:45:00 26.1 C 50 % 14.87 C
815 20-07-2017 19:50:00 25.9 C 50 % 14.68 C
816 20-07-2017 19:55:00 25.8 C 50 % 14.59 C
817 20-07-2017 20:00:00 25.6 C 52 % 15.02 C
818 20-07-2017 20:05:00 25.4 C 51 % 14.53 C
819 20-07-2017 20:10:00 25.3 C 52 % 14.74 C
820 20-07-2017 20:15:00 25.2 C 53 % 14.94 C
821 20-07-2017 20:20:00 25.1 C 57 % 15.98 C
822 20-07-2017 20:25:00 24.9 C 54 % 14.95 C
823 20-07-2017 20:30:00 24.6 C 57 % 15.52 C
824 20-07-2017 20:35:00 24.3 C 58 % 15.51 C
825 20-07-2017 20:40:00 23.9 C 59 % 15.4 C
Sensor: Nr:Datum:Temp:Feuchte:Taupunkt:
Aussen-T/F 826 20-07-2017 20:45:00 23.7 C 63 % 16.24 C
827 20-07-2017 20:50:00 23.3 C 64 % 16.11 C
828 20-07-2017 20:55:00 22.9 C 65 % 15.97 C
829 20-07-2017 21:00:00 22.7 C 67 % 16.26 C
830 20-07-2017 21:05:00 22.4 C 68 % 16.2 C
831 20-07-2017 21:10:00 22.3 C 70 % 16.56 C
832 20-07-2017 21:15:00 22.1 C 70 % 16.37 C
833 20-07-2017 21:20:00 21.8 C 72 % 16.53 C
834 20-07-2017 21:25:00 21.7 C 72 % 16.43 C
835 20-07-2017 21:30:00 21.5 C 73 % 16.46 C
836 20-07-2017 21:35:00 21.3 C 74 % 16.48 C
837 20-07-2017 21:40:00 21.2 C 74 % 16.38 C
838 20-07-2017 21:45:00 20.9 C 74 % 16.09 C
839 20-07-2017 21:50:00 20.8 C 75 % 16.21 C
840 20-07-2017 21:55:00 20.6 C 76 % 16.22 C
841 20-07-2017 22:00:00 20.4 C 76 % 16.03 C
842 20-07-2017 22:05:00 20.3 C 77 % 16.14 C
843 20-07-2017 22:10:00 20.2 C 77 % 16.04 C
844 20-07-2017 22:15:00 20 C 77 % 15.85 C
845 20-07-2017 22:20:00 19.8 C 78 % 15.85 C
846 20-07-2017 22:25:00 19.7 C 78 % 15.76 C
847 20-07-2017 22:30:00 19.6 C 79 % 15.86 C
848 20-07-2017 22:35:00 19.4 C 80 % 15.86 C
849 20-07-2017 22:40:00 19.4 C 79 % 15.66 C
850 20-07-2017 22:45:00 19.5 C 78 % 15.56 C
Sensor: Nr:Datum:Temp:Feuchte:Taupunkt:
Aussen-T/F 851 20-07-2017 22:50:00 19.8 C 77 % 15.65 C
852 20-07-2017 22:55:00 20.1 C 76 % 15.74 C
853 20-07-2017 23:00:00 20.2 C 77 % 16.04 C
854 20-07-2017 23:05:00 20.2 C 75 % 15.63 C
855 20-07-2017 23:10:00 20.2 C 75 % 15.63 C
856 20-07-2017 23:15:00 20.2 C 75 % 15.63 C
857 20-07-2017 23:20:00 20.2 C 77 % 16.04 C
858 20-07-2017 23:25:00 20.1 C 77 % 15.94 C
859 20-07-2017 23:30:00 19.9 C 79 % 16.15 C
860 20-07-2017 23:35:00 19.6 C 79 % 15.86 C
861 20-07-2017 23:40:00 19.4 C 80 % 15.86 C
862 20-07-2017 23:45:00 19.3 C 80 % 15.76 C
863 20-07-2017 23:50:00 19.1 C 80 % 15.57 C
864 20-07-2017 23:55:00 19.1 C 82 % 15.96 C
865 21-07-2017 00:00:00 19 C 81 % 15.67 C
866 21-07-2017 00:05:00 18.9 C 82 % 15.76 C
867 21-07-2017 00:10:00 18.7 C 82 % 15.57 C
868 21-07-2017 00:15:00 18.6 C 83 % 15.66 C
869 21-07-2017 00:20:00 18.4 C 84 % 15.65 C
870 21-07-2017 00:25:00 18.5 C 82 % 15.37 C
871 21-07-2017 00:30:00 18.7 C 82 % 15.57 C
872 21-07-2017 00:35:00 18.7 C 83 % 15.75 C
873 21-07-2017 00:40:00 18.7 C 84 % 15.94 C
874 21-07-2017 00:45:00 18.5 C 83 % 15.56 C
875 21-07-2017 00:50:00 18.3 C 83 % 15.36 C
Sensor: Nr:Datum:Temp:Feuchte:Taupunkt:
Aussen-T/F 876 21-07-2017 00:55:00 18.2 C 84 % 15.45 C
877 21-07-2017 01:00:00 18.1 C 84 % 15.35 C
878 21-07-2017 01:05:00 17.9 C 85 % 15.34 C
879 21-07-2017 01:10:00 17.8 C 86 % 15.43 C
880 21-07-2017 01:15:00 17.8 C 86 % 15.43 C
881 21-07-2017 01:20:00 17.8 C 87 % 15.61 C
882 21-07-2017 01:25:00 17.8 C 87 % 15.61 C
883 21-07-2017 01:30:00 17.8 C 86 % 15.43 C
884 21-07-2017 01:35:00 17.9 C 84 % 15.16 C
885 21-07-2017 01:40:00 18.1 C 82 % 14.98 C
886 21-07-2017 01:45:00 18.3 C 79 % 14.6 C
887 21-07-2017 01:50:00 18.4 C 78 % 14.5 C
888 21-07-2017 01:55:00 18.6 C 76 % 14.29 C
889 21-07-2017 02:00:00 18.7 C 75 % 14.18 C
890 21-07-2017 02:05:00 18.7 C 73 % 13.76 C
891 21-07-2017 02:10:00 18.7 C 73 % 13.76 C
892 21-07-2017 02:15:00 18.7 C 73 % 13.76 C
893 21-07-2017 02:20:00 18.6 C 75 % 14.08 C
894 21-07-2017 02:25:00 18.4 C 74 % 13.68 C
895 21-07-2017 02:30:00 18.4 C 74 % 13.68 C
896 21-07-2017 02:35:00 18.3 C 74 % 13.59 C
897 21-07-2017 02:40:00 18.3 C 75 % 13.79 C
898 21-07-2017 02:45:00 18.2 C 75 % 13.7 C
899 21-07-2017 02:50:00 18.1 C 77 % 14.01 C
900 21-07-2017 02:55:00 17.8 C 77 % 13.72 C
Sensor: Nr:Datum:Temp:Feuchte:Taupunkt:
Aussen-T/F 901 21-07-2017 03:00:00 17.6 C 76 % 13.32 C
902 21-07-2017 03:05:00 17.4 C 78 % 13.53 C
903 21-07-2017 03:10:00 17.2 C 79 % 13.53 C
904 21-07-2017 03:15:00 16.9 C 80 % 13.43 C
905 21-07-2017 03:20:00 16.7 C 79 % 13.04 C
906 21-07-2017 03:25:00 16.6 C 80 % 13.14 C
907 21-07-2017 03:30:00 16.4 C 82 % 13.32 C
908 21-07-2017 03:35:00 16.3 C 81 % 13.04 C
909 21-07-2017 03:40:00 16.2 C 82 % 13.13 C
910 21-07-2017 03:45:00 16 C 82 % 12.93 C
911 21-07-2017 03:50:00 15.9 C 83 % 13.02 C
912 21-07-2017 03:55:00 15.8 C 83 % 12.92 C
913 21-07-2017 04:00:00 15.7 C 83 % 12.82 C
914 21-07-2017 04:05:00 15.6 C 84 % 12.91 C
915 21-07-2017 04:10:00 15.5 C 84 % 12.81 C
916 21-07-2017 04:15:00 15.4 C 84 % 12.71 C
917 21-07-2017 04:20:00 15.3 C 84 % 12.61 C
918 21-07-2017 04:25:00 15.2 C 85 % 12.7 C
919 21-07-2017 04:30:00 15.1 C 85 % 12.6 C
920 21-07-2017 04:35:00 15 C 86 % 12.68 C
921 21-07-2017 04:40:00 14.9 C 86 % 12.58 C
922 21-07-2017 04:45:00 14.9 C 86 % 12.58 C
923 21-07-2017 04:50:00 14.8 C 86 % 12.48 C
924 21-07-2017 04:55:00 14.7 C 86 % 12.38 C
925 21-07-2017 05:00:00 14.7 C 86 % 12.38 C
Sensor: Nr:Datum:Temp:Feuchte:Taupunkt:
Aussen-T/F 926 21-07-2017 05:05:00 14.6 C 85 % 12.11 C
927 21-07-2017 05:10:00 14.6 C 86 % 12.29 C
928 21-07-2017 05:15:00 14.6 C 86 % 12.29 C
929 21-07-2017 05:20:00 14.4 C 85 % 11.91 C
930 21-07-2017 05:25:00 14.3 C 85 % 11.81 C
931 21-07-2017 05:30:00 14.3 C 86 % 11.99 C
932 21-07-2017 05:35:00 14.2 C 86 % 11.89 C
933 21-07-2017 05:40:00 14.1 C 85 % 11.62 C
934 21-07-2017 05:45:00 14 C 86 % 11.7 C
935 21-07-2017 05:50:00 13.9 C 86 % 11.6 C
936 21-07-2017 05:55:00 13.8 C 86 % 11.5 C
937 21-07-2017 06:00:00 13.8 C 87 % 11.68 C
938 21-07-2017 06:05:00 13.7 C 87 % 11.58 C
939 21-07-2017 06:10:00 13.7 C 87 % 11.58 C
940 21-07-2017 06:15:00 13.6 C 88 % 11.65 C
941 21-07-2017 06:20:00 13.6 C 88 % 11.65 C
942 21-07-2017 06:25:00 13.6 C 88 % 11.65 C
943 21-07-2017 06:30:00 13.5 C 89 % 11.72 C
944 21-07-2017 06:35:00 13.4 C 89 % 11.63 C
945 21-07-2017 06:40:00 13.4 C 89 % 11.63 C
946 21-07-2017 06:45:00 13.3 C 89 % 11.53 C
947 21-07-2017 06:50:00 13.3 C 90 % 11.7 C
948 21-07-2017 06:55:00 13.3 C 90 % 11.7 C
949 21-07-2017 07:00:00 13.3 C 90 % 11.7 C
950 21-07-2017 07:05:00 13.3 C 90 % 11.7 C
Sensor: Nr:Datum:Temp:Feuchte:Taupunkt:
Aussen-T/F 951 21-07-2017 07:10:00 13.3 C 91 % 11.86 C
952 21-07-2017 07:15:00 13.3 C 91 % 11.86 C
953 21-07-2017 07:20:00 13.4 C 91 % 11.96 C
954 21-07-2017 07:25:00 13.4 C 91 % 11.96 C
955 21-07-2017 07:30:00 13.4 C 91 % 11.96 C
956 21-07-2017 07:35:00 13.4 C 91 % 11.96 C
957 21-07-2017 07:40:00 13.6 C 91 % 12.16 C
958 21-07-2017 07:45:00 13.6 C 91 % 12.16 C
959 21-07-2017 07:50:00 13.6 C 91 % 12.16 C
960 21-07-2017 07:55:00 13.7 C 91 % 12.26 C
961 21-07-2017 08:00:00 13.7 C 91 % 12.26 C
962 21-07-2017 08:05:00 13.8 C 91 % 12.36 C
963 21-07-2017 08:10:00 13.8 C 91 % 12.36 C
964 21-07-2017 08:15:00 13.9 C 91 % 12.46 C
965 21-07-2017 08:20:00 13.9 C 91 % 12.46 C
966 21-07-2017 08:25:00 14.1 C 91 % 12.65 C
967 21-07-2017 08:30:00 14.2 C 91 % 12.75 C
968 21-07-2017 08:35:00 14.3 C 91 % 12.85 C
969 21-07-2017 08:40:00 14.4 C 91 % 12.95 C
970 21-07-2017 08:45:00 14.6 C 91 % 13.15 C
971 21-07-2017 08:50:00 14.8 C 91 % 13.35 C
972 21-07-2017 08:55:00 14.9 C 91 % 13.44 C
973 21-07-2017 09:00:00 15 C 91 % 13.54 C
974 21-07-2017 09:05:00 15.2 C 91 % 13.74 C
975 21-07-2017 09:10:00 15.3 C 90 % 13.67 C
Sensor: Nr:Datum:Temp:Feuchte:Taupunkt:
Aussen-T/F 976 21-07-2017 09:15:00 15.5 C 90 % 13.87 C
977 21-07-2017 09:20:00 15.7 C 88 % 13.72 C
978 21-07-2017 09:25:00 15.8 C 87 % 13.64 C
979 21-07-2017 09:30:00 16.1 C 87 % 13.94 C
980 21-07-2017 09:35:00 16.2 C 84 % 13.5 C
981 21-07-2017 09:40:00 16.5 C 82 % 13.42 C
982 21-07-2017 09:45:00 16.7 C 82 % 13.61 C
983 21-07-2017 09:50:00 17.1 C 77 % 13.04 C
984 21-07-2017 09:55:00 17.6 C 76 % 13.32 C
985 21-07-2017 10:00:00 17.8 C 76 % 13.52 C
986 21-07-2017 10:05:00 18 C 74 % 13.3 C
987 21-07-2017 10:10:00 18.2 C 74 % 13.49 C
988 21-07-2017 10:15:00 18.5 C 72 % 13.36 C
989 21-07-2017 10:20:00 18.8 C 74 % 14.07 C
990 21-07-2017 10:25:00 19.1 C 72 % 13.94 C
991 21-07-2017 10:30:00 19.3 C 74 % 14.55 C
992 21-07-2017 10:35:00 19.7 C 69 % 13.86 C
993 21-07-2017 10:40:00 19.9 C 70 % 14.27 C
994 21-07-2017 10:45:00 20.1 C 69 % 14.24 C
995 21-07-2017 10:50:00 20.3 C 67 % 13.97 C
996 21-07-2017 10:55:00 20.5 C 67 % 14.16 C
997 21-07-2017 11:00:00 20.7 C 65 % 13.89 C
998 21-07-2017 11:05:00 20.8 C 66 % 14.22 C
999 21-07-2017 11:10:00 20.8 C 65 % 13.98 C
1000 21-07-2017 11:15:00 20.9 C 64 % 13.84 C
Sensor: Nr:Datum:Temp:Feuchte:Taupunkt:
Aussen-T/F 1001 21-07-2017 11:20:00 20.9 C 64 % 13.84 C
1002 21-07-2017 11:25:00 20.9 C 67 % 14.55 C
1003 21-07-2017 11:30:00 20.7 C 68 % 14.58 C
1004 21-07-2017 11:35:00 20.5 C 74 % 15.71 C
1005 21-07-2017 11:40:00 20.3 C 74 % 15.51 C
1006 21-07-2017 11:45:00 20.3 C 72 % 15.09 C
1007 21-07-2017 11:50:00 20.6 C 67 % 14.26 C
1008 21-07-2017 11:55:00 20.9 C 65 % 14.08 C
1009 21-07-2017 12:00:00 21.2 C 64 % 14.12 C
1010 21-07-2017 12:05:00 21.4 C 64 % 14.31 C
1011 21-07-2017 12:10:00 21.6 C 63 % 14.26 C
1012 21-07-2017 12:15:00 21.8 C 61 % 13.95 C
1013 21-07-2017 12:20:00 21.9 C 60 % 13.79 C
1014 21-07-2017 12:25:00 22.1 C 59 % 13.72 C
1015 21-07-2017 12:30:00 22.1 C 60 % 13.98 C
1016 21-07-2017 12:35:00 22.2 C 59 % 13.81 C
1017 21-07-2017 12:40:00 22.2 C 58 % 13.55 C
1018 21-07-2017 12:45:00 22.3 C 58 % 13.64 C
1019 21-07-2017 12:50:00 22.3 C 58 % 13.64 C
1020 21-07-2017 12:55:00 22.5 C 57 % 13.56 C
1021 21-07-2017 13:00:00 22.6 C 56 % 13.38 C
1022 21-07-2017 13:05:00 22.7 C 56 % 13.47 C
1023 21-07-2017 13:10:00 22.7 C 56 % 13.47 C
1024 21-07-2017 13:15:00 22.8 C 56 % 13.57 C
1025 21-07-2017 13:20:00 22.8 C 57 % 13.84 C
Sensor: Nr:Datum:Temp:Feuchte:Taupunkt:
Aussen-T/F 1026 21-07-2017 13:25:00 22.9 C 57 % 13.93 C
1027 21-07-2017 13:30:00 23.1 C 54 % 13.29 C
1028 21-07-2017 13:35:00 23.2 C 55 % 13.66 C
1029 21-07-2017 13:40:00 23.3 C 53 % 13.19 C
1030 21-07-2017 13:45:00 23.5 C 57 % 14.49 C
1031 21-07-2017 13:50:00 23.5 C 54 % 13.66 C
1032 21-07-2017 13:55:00 23.6 C 52 % 13.17 C
1033 21-07-2017 14:00:00 23.7 C 54 % 13.84 C
1034 21-07-2017 14:05:00 23.8 C 55 % 14.22 C
1035 21-07-2017 14:10:00 23.9 C 62 % 16.18 C
1036 21-07-2017 14:15:00 24 C 60 % 15.76 C
1037 21-07-2017 14:20:00 24.1 C 55 % 14.5 C
1038 21-07-2017 14:25:00 24.3 C 54 % 14.4 C
1039 21-07-2017 14:30:00 24.4 C 54 % 14.49 C
1040 21-07-2017 14:35:00 24.4 C 53 % 14.2 C
1041 21-07-2017 14:40:00 24.4 C 53 % 14.2 C
1042 21-07-2017 14:45:00 24.4 C 54 % 14.49 C
1043 21-07-2017 14:50:00 24.4 C 55 % 14.78 C
1044 21-07-2017 14:55:00 24.4 C 54 % 14.49 C
1045 21-07-2017 15:00:00 24.5 C 53 % 14.3 C
1046 21-07-2017 15:05:00 24.7 C 53 % 14.48 C
1047 21-07-2017 15:10:00 24.9 C 53 % 14.66 C
1048 21-07-2017 15:15:00 25.1 C 52 % 14.55 C
1049 21-07-2017 15:20:00 25.2 C 51 % 14.35 C
1050 21-07-2017 15:25:00 25.3 C 50 % 14.13 C
Sensor: Nr:Datum:Temp:Feuchte:Taupunkt:
Aussen-T/F 1051 21-07-2017 15:30:00 25.3 C 51 % 14.44 C
1052 21-07-2017 15:35:00 25.2 C 51 % 14.35 C
1053 21-07-2017 15:40:00 25.1 C 52 % 14.55 C
1054 21-07-2017 15:45:00 25 C 51 % 14.16 C
1055 21-07-2017 15:50:00 24.9 C 56 % 15.52 C
1056 21-07-2017 15:55:00 24.8 C 54 % 14.86 C
1057 21-07-2017 16:00:00 24.7 C 59 % 16.15 C
1058 21-07-2017 16:05:00 24.6 C 62 % 16.84 C
1059 21-07-2017 16:10:00 24.5 C 57 % 15.42 C
1060 21-07-2017 16:15:00 24.7 C 54 % 14.77 C
1061 21-07-2017 16:20:00 25.4 C 54 % 15.42 C
1062 21-07-2017 16:25:00 26 C 51 % 15.08 C
1063 21-07-2017 16:30:00 26.1 C 50 % 14.87 C
1064 21-07-2017 16:35:00 26.2 C 50 % 14.96 C
1065 21-07-2017 16:40:00 26.5 C 48 % 14.6 C
1066 21-07-2017 16:45:00 26.8 C 48 % 14.87 C
1067 21-07-2017 16:50:00 26.8 C 49 % 15.19 C
1068 21-07-2017 16:55:00 27.2 C 47 % 14.91 C
1069 21-07-2017 17:00:00 27.3 C 48 % 15.33 C
1070 21-07-2017 17:05:00 27.7 C 48 % 15.69 C
1071 21-07-2017 17:10:00 27.7 C 46 % 15.03 C
1072 21-07-2017 17:15:00 27.6 C 45 % 14.6 C
1073 21-07-2017 17:20:00 27.4 C 46 % 14.76 C
1074 21-07-2017 17:25:00 27.6 C 46 % 14.94 C
1075 21-07-2017 17:30:00 27.6 C 46 % 14.94 C
Sensor: Nr:Datum:Temp:Feuchte:Taupunkt:
Aussen-T/F 1076 21-07-2017 17:35:00 27.6 C 54 % 17.45 C
1077 21-07-2017 17:40:00 27.5 C 52 % 16.76 C
1078 21-07-2017 17:45:00 27.6 C 47 % 15.27 C
1079 21-07-2017 17:50:00 27.4 C 46 % 14.76 C
1080 21-07-2017 17:55:00 27.2 C 46 % 14.58 C
1081 21-07-2017 18:00:00 26.9 C 50 % 15.6 C
1082 21-07-2017 18:05:00 26.8 C 55 % 17 C
1083 21-07-2017 18:10:00 26.9 C 49 % 15.28 C
1084 21-07-2017 18:15:00 27.1 C 48 % 15.15 C
1085 21-07-2017 18:20:00 27.2 C 48 % 15.24 C
1086 21-07-2017 18:25:00 27.3 C 47 % 15 C
1087 21-07-2017 18:30:00 27.4 C 47 % 15.09 C
1088 21-07-2017 18:35:00 27.1 C 48 % 15.15 C
1089 21-07-2017 18:40:00 27 C 48 % 15.05 C
1090 21-07-2017 18:45:00 27.2 C 48 % 15.24 C
1091 21-07-2017 18:50:00 27.1 C 47 % 14.82 C
1092 21-07-2017 18:55:00 26.9 C 55 % 17.09 C
1093 21-07-2017 19:00:00 26.7 C 60 % 18.29 C
1094 21-07-2017 19:05:00 26.4 C 60 % 18.01 C
1095 21-07-2017 19:10:00 26.1 C 62 % 18.25 C
1096 21-07-2017 19:15:00 25.9 C 64 % 18.57 C
1097 21-07-2017 19:20:00 25.8 C 64 % 18.47 C
1098 21-07-2017 19:25:00 25.6 C 64 % 18.28 C
1099 21-07-2017 19:30:00 25.3 C 65 % 18.25 C
1100 21-07-2017 19:35:00 25.1 C 66 % 18.3 C
Sensor: Nr:Datum:Temp:Feuchte:Taupunkt:
Aussen-T/F 1101 21-07-2017 19:40:00 24.8 C 66 % 18.01 C
1102 21-07-2017 19:45:00 24.5 C 67 % 17.97 C
1103 21-07-2017 19:50:00 24.2 C 68 % 17.92 C
1104 21-07-2017 19:55:00 24 C 70 % 18.19 C
1105 21-07-2017 20:00:00 23.8 C 69 % 17.77 C
1106 21-07-2017 20:05:00 23.7 C 70 % 17.9 C
1107 21-07-2017 20:10:00 23.6 C 71 % 18.03 C
1108 21-07-2017 20:15:00 23.5 C 71 % 17.94 C
1109 21-07-2017 20:20:00 23.4 C 71 % 17.84 C
1110 21-07-2017 20:25:00 23.3 C 71 % 17.75 C
1111 21-07-2017 20:30:00 23.3 C 71 % 17.75 C
1112 21-07-2017 20:35:00 23.3 C 69 % 17.29 C
1113 21-07-2017 20:40:00 23.3 C 70 % 17.52 C
1114 21-07-2017 20:45:00 23.2 C 70 % 17.42 C
1115 21-07-2017 20:50:00 23.2 C 69 % 17.2 C
1116 21-07-2017 20:55:00 23 C 69 % 17.01 C
1117 21-07-2017 21:00:00 22.8 C 69 % 16.82 C
1118 21-07-2017 21:05:00 22.6 C 69 % 16.62 C
1119 21-07-2017 21:10:00 22.3 C 71 % 16.79 C
1120 21-07-2017 21:15:00 22.1 C 71 % 16.6 C
1121 21-07-2017 21:20:00 21.8 C 72 % 16.53 C
1122 21-07-2017 21:25:00 21.6 C 72 % 16.34 C
1123 21-07-2017 21:30:00 21.4 C 71 % 15.93 C
1124 21-07-2017 21:35:00 21.3 C 73 % 16.26 C
1125 21-07-2017 21:40:00 21.2 C 73 % 16.17 C
Sensor: Nr:Datum:Temp:Feuchte:Taupunkt:
Aussen-T/F 1126 21-07-2017 21:45:00 21.1 C 74 % 16.29 C
1127 21-07-2017 21:50:00 21 C 73 % 15.98 C
1128 21-07-2017 21:55:00 20.9 C 75 % 16.3 C
1129 21-07-2017 22:00:00 20.8 C 74 % 16 C
1130 21-07-2017 22:05:00 20.8 C 75 % 16.21 C
1131 21-07-2017 22:10:00 20.7 C 75 % 16.11 C
1132 21-07-2017 22:15:00 20.6 C 75 % 16.01 C
1133 21-07-2017 22:20:00 20.5 C 75 % 15.92 C
1134 21-07-2017 22:25:00 20.4 C 76 % 16.03 C
1135 21-07-2017 22:30:00 20.3 C 77 % 16.14 C
1136 21-07-2017 22:35:00 20.3 C 78 % 16.34 C
1137 21-07-2017 22:40:00 20.2 C 77 % 16.04 C
1138 21-07-2017 22:45:00 20.2 C 78 % 16.24 C
1139 21-07-2017 22:50:00 20.1 C 79 % 16.34 C
1140 21-07-2017 22:55:00 20.1 C 78 % 16.14 C
1141 21-07-2017 23:00:00 20 C 79 % 16.25 C
1142 21-07-2017 23:05:00 20 C 79 % 16.25 C
1143 21-07-2017 23:10:00 20 C 79 % 16.25 C
1144 21-07-2017 23:15:00 19.9 C 79 % 16.15 C
1145 21-07-2017 23:20:00 19.9 C 79 % 16.15 C
1146 21-07-2017 23:25:00 19.9 C 79 % 16.15 C
1147 21-07-2017 23:30:00 19.9 C 79 % 16.15 C
1148 21-07-2017 23:35:00 19.8 C 79 % 16.05 C
1149 21-07-2017 23:40:00 19.9 C 80 % 16.35 C
1150 21-07-2017 23:45:00 19.8 C 80 % 16.25 C
Sensor: Nr:Datum:Temp:Feuchte:Taupunkt:
Aussen-T/F 1151 21-07-2017 23:50:00 19.8 C 80 % 16.25 C
1152 21-07-2017 23:55:00 19.8 C 80 % 16.25 C
1153 22-07-2017 00:00:00 19.8 C 80 % 16.25 C
1154 22-07-2017 00:05:00 19.8 C 79 % 16.05 C
1155 22-07-2017 00:10:00 19.7 C 80 % 16.15 C
1156 22-07-2017 00:15:00 19.7 C 79 % 15.96 C
1157 22-07-2017 00:20:00 19.7 C 80 % 16.15 C
1158 22-07-2017 00:25:00 19.8 C 80 % 16.25 C
1159 22-07-2017 00:30:00 19.8 C 80 % 16.25 C
1160 22-07-2017 00:35:00 19.8 C 81 % 16.45 C
1161 22-07-2017 00:40:00 19.8 C 81 % 16.45 C
1162 22-07-2017 00:45:00 19.8 C 82 % 16.64 C
1163 22-07-2017 00:50:00 19.8 C 82 % 16.64 C
1164 22-07-2017 00:55:00 19.8 C 83 % 16.83 C
1165 22-07-2017 01:00:00 19.8 C 82 % 16.64 C
1166 22-07-2017 01:05:00 19.8 C 83 % 16.83 C
1167 22-07-2017 01:10:00 19.8 C 83 % 16.83 C
1168 22-07-2017 01:15:00 19.8 C 84 % 17.02 C
1169 22-07-2017 01:20:00 19.7 C 86 % 17.29 C
1170 22-07-2017 01:25:00 19.6 C 87 % 17.38 C
1171 22-07-2017 01:30:00 19.4 C 88 % 17.36 C
1172 22-07-2017 01:35:00 19.3 C 89 % 17.44 C
1173 22-07-2017 01:40:00 19.1 C 90 % 17.42 C
1174 22-07-2017 01:45:00 18.9 C 91 % 17.4 C
1175 22-07-2017 01:50:00 18.8 C 91 % 17.3 C
Sensor: Nr:Datum:Temp:Feuchte:Taupunkt:
Aussen-T/F 1176 22-07-2017 01:55:00 18.7 C 92 % 17.37 C
1177 22-07-2017 02:00:00 18.7 C 92 % 17.37 C
1178 22-07-2017 02:05:00 18.6 C 92 % 17.27 C
1179 22-07-2017 02:10:00 18.5 C 93 % 17.35 C
1180 22-07-2017 02:15:00 18.4 C 93 % 17.25 C
1181 22-07-2017 02:20:00 18.4 C 93 % 17.25 C
1182 22-07-2017 02:25:00 18.4 C 93 % 17.25 C
1183 22-07-2017 02:30:00 18.3 C 93 % 17.15 C
1184 22-07-2017 02:35:00 18.3 C 93 % 17.15 C
1185 22-07-2017 02:40:00 18.2 C 93 % 17.05 C
1186 22-07-2017 02:45:00 18.1 C 93 % 16.95 C
1187 22-07-2017 02:50:00 18.1 C 94 % 17.12 C
1188 22-07-2017 02:55:00 18.1 C 94 % 17.12 C
1189 22-07-2017 03:00:00 18.1 C 94 % 17.12 C
1190 22-07-2017 03:05:00 18 C 94 % 17.02 C
1191 22-07-2017 03:10:00 17.9 C 94 % 16.92 C
1192 22-07-2017 03:15:00 17.8 C 94 % 16.82 C
1193 22-07-2017 03:20:00 17.8 C 94 % 16.82 C
1194 22-07-2017 03:25:00 17.7 C 94 % 16.72 C
1195 22-07-2017 03:30:00 17.7 C 94 % 16.72 C
1196 22-07-2017 03:35:00 17.7 C 94 % 16.72 C
1197 22-07-2017 03:40:00 17.6 C 94 % 16.62 C
1198 22-07-2017 03:45:00 17.6 C 94 % 16.62 C
1199 22-07-2017 03:50:00 17.6 C 94 % 16.62 C
1200 22-07-2017 03:55:00 17.5 C 94 % 16.52 C
Sensor: Nr:Datum:Temp:Feuchte:Taupunkt:
Aussen-T/F 1201 22-07-2017 04:00:00 17.4 C 94 % 16.42 C
1202 22-07-2017 04:05:00 17.4 C 95 % 16.59 C
1203 22-07-2017 04:10:00 17.4 C 94 % 16.42 C
1204 22-07-2017 04:15:00 17.4 C 95 % 16.59 C
1205 22-07-2017 04:20:00 17.4 C 95 % 16.59 C
1206 22-07-2017 04:25:00 17.4 C 95 % 16.59 C
1207 22-07-2017 04:30:00 17.5 C 95 % 16.69 C
1208 22-07-2017 04:35:00 17.5 C 95 % 16.69 C
1209 22-07-2017 04:40:00 17.5 C 95 % 16.69 C
1210 22-07-2017 04:45:00 17.6 C 95 % 16.79 C
1211 22-07-2017 04:50:00 17.6 C 95 % 16.79 C
1212 22-07-2017 04:55:00 17.5 C 95 % 16.69 C
1213 22-07-2017 05:00:00 17.5 C 95 % 16.69 C
1214 22-07-2017 05:05:00 17.5 C 95 % 16.69 C
1215 22-07-2017 05:10:00 17.5 C 95 % 16.69 C
1216 22-07-2017 05:15:00 17.6 C 95 % 16.79 C
1217 22-07-2017 05:20:00 17.6 C 95 % 16.79 C
1218 22-07-2017 05:25:00 17.6 C 96 % 16.95 C
1219 22-07-2017 05:30:00 17.7 C 96 % 17.05 C
1220 22-07-2017 05:35:00 17.6 C 96 % 16.95 C
1221 22-07-2017 05:40:00 17.6 C 95 % 16.79 C
1222 22-07-2017 05:45:00 17.6 C 95 % 16.79 C
1223 22-07-2017 05:50:00 17.6 C 96 % 16.95 C
1224 22-07-2017 05:55:00 17.6 C 96 % 16.95 C
1225 22-07-2017 06:00:00 17.6 C 96 % 16.95 C
Sensor: Nr:Datum:Temp:Feuchte:Taupunkt:
Aussen-T/F 1226 22-07-2017 06:05:00 17.7 C 96 % 17.05 C
1227 22-07-2017 06:10:00 17.7 C 96 % 17.05 C
1228 22-07-2017 06:15:00 17.7 C 96 % 17.05 C
1229 22-07-2017 06:20:00 17.6 C 96 % 16.95 C
1230 22-07-2017 06:25:00 17.6 C 96 % 16.95 C
1231 22-07-2017 06:30:00 17.6 C 96 % 16.95 C
1232 22-07-2017 06:35:00 17.6 C 96 % 16.95 C
1233 22-07-2017 06:40:00 17.6 C 96 % 16.95 C
1234 22-07-2017 06:45:00 17.6 C 96 % 16.95 C
1235 22-07-2017 06:50:00 17.7 C 96 % 17.05 C
1236 22-07-2017 06:55:00 17.7 C 96 % 17.05 C
1237 22-07-2017 07:00:00 17.8 C 96 % 17.15 C
1238 22-07-2017 07:05:00 17.8 C 96 % 17.15 C
1239 22-07-2017 07:10:00 17.9 C 96 % 17.25 C
1240 22-07-2017 07:15:00 17.9 C 96 % 17.25 C
1241 22-07-2017 07:20:00 18 C 96 % 17.35 C
1242 22-07-2017 07:25:00 18.1 C 96 % 17.45 C
1243 22-07-2017 07:30:00 18.1 C 96 % 17.45 C
1244 22-07-2017 07:35:00 18.2 C 96 % 17.55 C
1245 22-07-2017 07:40:00 18.2 C 96 % 17.55 C
1246 22-07-2017 07:45:00 18.2 C 96 % 17.55 C
1247 22-07-2017 07:50:00 18.3 C 96 % 17.65 C
1248 22-07-2017 07:55:00 18.3 C 96 % 17.65 C
1249 22-07-2017 08:00:00 18.4 C 96 % 17.75 C
1250 22-07-2017 08:05:00 18.5 C 96 % 17.85 C
Sensor: Nr:Datum:Temp:Feuchte:Taupunkt:
Aussen-T/F 1251 22-07-2017 08:10:00 18.4 C 96 % 17.75 C
1252 22-07-2017 08:15:00 18.4 C 96 % 17.75 C
1253 22-07-2017 08:20:00 18.6 C 96 % 17.95 C
1254 22-07-2017 08:25:00 18.7 C 96 % 18.05 C
1255 22-07-2017 08:30:00 18.7 C 96 % 18.05 C
1256 22-07-2017 08:35:00 18.8 C 96 % 18.15 C
1257 22-07-2017 08:40:00 18.9 C 96 % 18.25 C
1258 22-07-2017 08:45:00 18.9 C 96 % 18.25 C
1259 22-07-2017 08:50:00 19 C 96 % 18.35 C
1260 22-07-2017 08:55:00 19 C 96 % 18.35 C
1261 22-07-2017 09:00:00 19.1 C 96 % 18.45 C
1262 22-07-2017 09:05:00 19.1 C 96 % 18.45 C
1263 22-07-2017 09:10:00 19.2 C 96 % 18.55 C
1264 22-07-2017 09:15:00 19.2 C 96 % 18.55 C
1265 22-07-2017 09:20:00 19.1 C 96 % 18.45 C
1266 22-07-2017 09:25:00 19.1 C 96 % 18.45 C
1267 22-07-2017 09:30:00 19.1 C 96 % 18.45 C
1268 22-07-2017 09:35:00 19.1 C 96 % 18.45 C
1269 22-07-2017 09:40:00 19.1 C 96 % 18.45 C
1270 22-07-2017 09:45:00 19.1 C 96 % 18.45 C
1271 22-07-2017 09:50:00 19.2 C 96 % 18.55 C
1272 22-07-2017 09:55:00 19.2 C 96 % 18.55 C
1273 22-07-2017 10:00:00 19.3 C 96 % 18.65 C
1274 22-07-2017 10:05:00 19.3 C 96 % 18.65 C
1275 22-07-2017 10:10:00 19.4 C 96 % 18.75 C
Sensor: Nr:Datum:Temp:Feuchte:Taupunkt:
Aussen-T/F 1276 22-07-2017 10:15:00 19.4 C 97 % 18.91 C
1277 22-07-2017 10:20:00 19.6 C 97 % 19.11 C
1278 22-07-2017 10:25:00 19.7 C 96 % 19.04 C
1279 22-07-2017 10:30:00 19.8 C 96 % 19.14 C
1280 22-07-2017 10:35:00 19.9 C 97 % 19.41 C
1281 22-07-2017 10:40:00 20 C 97 % 19.51 C
1282 22-07-2017 10:45:00 20.2 C 97 % 19.71 C
1283 22-07-2017 10:50:00 20.4 C 97 % 19.91 C
1284 22-07-2017 10:55:00 20.4 C 96 % 19.74 C
1285 22-07-2017 11:00:00 20.2 C 96 % 19.54 C
1286 22-07-2017 11:05:00 19.9 C 96 % 19.24 C
1287 22-07-2017 11:10:00 19.9 C 96 % 19.24 C
1288 22-07-2017 11:15:00 20.1 C 96 % 19.44 C
1289 22-07-2017 11:20:00 20.3 C 96 % 19.64 C
1290 22-07-2017 11:25:00 20.7 C 96 % 20.04 C
1291 22-07-2017 11:30:00 20.7 C 95 % 19.87 C
1292 22-07-2017 11:35:00 20.9 C 95 % 20.07 C
1293 22-07-2017 11:40:00 21.1 C 94 % 20.1 C
1294 22-07-2017 11:45:00 21.5 C 95 % 20.66 C
1295 22-07-2017 11:50:00 21.8 C 94 % 20.79 C
1296 22-07-2017 11:55:00 21.9 C 92 % 20.54 C
1297 22-07-2017 12:00:00 22.1 C 87 % 19.83 C
1298 22-07-2017 12:05:00 22.4 C 82 % 19.17 C
1299 22-07-2017 12:10:00 22.7 C 81 % 19.27 C
1300 22-07-2017 12:15:00 22.9 C 83 % 19.86 C
Sensor: Nr:Datum:Temp:Feuchte:Taupunkt:
Aussen-T/F 1301 22-07-2017 12:20:00 23 C 81 % 19.56 C
1302 22-07-2017 12:25:00 23.2 C 77 % 18.94 C
1303 22-07-2017 12:30:00 23.4 C 81 % 19.95 C
1304 22-07-2017 12:35:00 23.4 C 73 % 18.28 C
1305 22-07-2017 12:40:00 23.5 C 78 % 19.44 C
1306 22-07-2017 12:45:00 23.5 C 81 % 20.05 C
1307 22-07-2017 12:50:00 23.4 C 83 % 20.35 C
1308 22-07-2017 12:55:00 23.3 C 85 % 20.63 C
1309 22-07-2017 13:00:00 23.3 C 83 % 20.25 C
1310 22-07-2017 13:05:00 23.4 C 86 % 20.92 C
1311 22-07-2017 13:10:00 23.3 C 85 % 20.63 C
1312 22-07-2017 13:15:00 23.2 C 85 % 20.54 C
1313 22-07-2017 13:20:00 23 C 84 % 20.15 C
1314 22-07-2017 13:25:00 22.8 C 84 % 19.95 C
1315 22-07-2017 13:30:00 22.6 C 85 % 19.95 C
1316 22-07-2017 13:35:00 22.7 C 87 % 20.42 C
1317 22-07-2017 13:40:00 22.7 C 86 % 20.24 C
1318 22-07-2017 13:45:00 22.7 C 84 % 19.86 C
1319 22-07-2017 13:50:00 22.8 C 86 % 20.33 C
1320 22-07-2017 13:55:00 22.8 C 85 % 20.14 C
1321 22-07-2017 14:00:00 22.8 C 86 % 20.33 C
1322 22-07-2017 14:05:00 22.8 C 85 % 20.14 C
1323 22-07-2017 14:10:00 22.8 C 85 % 20.14 C
1324 22-07-2017 14:15:00 22.9 C 84 % 20.05 C
1325 22-07-2017 14:20:00 23.1 C 82 % 19.86 C
Sensor: Nr:Datum:Temp:Feuchte:Taupunkt:
Aussen-T/F 1326 22-07-2017 14:25:00 23.3 C 82 % 20.05 C
1327 22-07-2017 14:30:00 23.4 C 76 % 18.93 C
1328 22-07-2017 14:35:00 23.6 C 76 % 19.12 C
1329 22-07-2017 14:40:00 23.7 C 77 % 19.43 C
1330 22-07-2017 14:45:00 23.9 C 75 % 19.2 C
1331 22-07-2017 14:50:00 24.2 C 73 % 19.05 C
1332 22-07-2017 14:55:00 24.4 C 73 % 19.24 C
1333 22-07-2017 15:00:00 24.6 C 70 % 18.76 C
1334 22-07-2017 15:05:00 24.8 C 71 % 19.18 C
1335 22-07-2017 15:10:00 25.1 C 70 % 19.24 C
1336 22-07-2017 15:15:00 25.4 C 69 % 19.3 C
1337 22-07-2017 15:20:00 25.8 C 66 % 18.96 C
1338 22-07-2017 15:25:00 26.2 C 69 % 20.06 C
1339 22-07-2017 15:30:00 26.4 C 66 % 19.53 C
1340 22-07-2017 15:35:00 26.8 C 68 % 20.4 C
1341 22-07-2017 15:40:00 27.1 C 63 % 19.45 C
1342 22-07-2017 15:45:00 27.2 C 61 % 19.02 C
1343 22-07-2017 15:50:00 27.3 C 63 % 19.63 C
1344 22-07-2017 15:55:00 27.6 C 63 % 19.92 C
1345 22-07-2017 16:00:00 27.6 C 63 % 19.92 C
1346 22-07-2017 16:05:00 27.6 C 59 % 18.86 C
1347 22-07-2017 16:10:00 27.6 C 59 % 18.86 C
1348 22-07-2017 16:15:00 27.8 C 63 % 20.11 C
1349 22-07-2017 16:20:00 28.1 C 63 % 20.39 C
1350 22-07-2017 16:25:00 28.4 C 59 % 19.61 C
Sensor: Nr:Datum:Temp:Feuchte:Taupunkt:
Aussen-T/F 1351 22-07-2017 16:30:00 28.2 C 58 % 19.15 C
1352 22-07-2017 16:35:00 27.7 C 62 % 19.75 C
1353 22-07-2017 16:40:00 27.2 C 65 % 20.04 C
1354 22-07-2017 16:45:00 27.1 C 63 % 19.45 C
1355 22-07-2017 16:50:00 26.9 C 65 % 19.76 C
1356 22-07-2017 16:55:00 26.8 C 66 % 19.91 C
1357 22-07-2017 17:00:00 27 C 67 % 20.35 C
1358 22-07-2017 17:05:00 27.2 C 62 % 19.28 C
1359 22-07-2017 17:10:00 26.9 C 65 % 19.76 C
1360 22-07-2017 17:15:00 27 C 64 % 19.61 C
1361 22-07-2017 17:20:00 27.3 C 63 % 19.63 C
1362 22-07-2017 17:25:00 27.6 C 63 % 19.92 C
1363 22-07-2017 17:30:00 27.9 C 60 % 19.41 C
1364 22-07-2017 17:35:00 27.8 C 66 % 20.86 C
1365 22-07-2017 17:40:00 28.2 C 60 % 19.69 C
1366 22-07-2017 17:45:00 28.6 C 58 % 19.52 C
1367 22-07-2017 17:50:00 28.8 C 62 % 20.79 C
1368 22-07-2017 17:55:00 28.9 C 49 % 17.11 C
1369 22-07-2017 18:00:00 29.2 C 50 % 17.71 C
1370 22-07-2017 18:05:00 29.5 C 51 % 18.3 C
1371 22-07-2017 18:10:00 29.8 C 46 % 16.93 C
1372 22-07-2017 18:15:00 29.9 C 46 % 17.02 C
1373 22-07-2017 18:20:00 29.7 C 46 % 16.84 C
1374 22-07-2017 18:25:00 29.6 C 46 % 16.75 C
1375 22-07-2017 18:30:00 29.6 C 44 % 16.05 C
Sensor: Nr:Datum:Temp:Feuchte:Taupunkt:
Aussen-T/F 1376 22-07-2017 18:35:00 29.6 C 44 % 16.05 C
1377 22-07-2017 18:40:00 29.6 C 45 % 16.41 C
1378 22-07-2017 18:45:00 29.6 C 44 % 16.05 C
1379 22-07-2017 18:50:00 29.5 C 45 % 16.32 C
1380 22-07-2017 18:55:00 29.1 C 45 % 15.95 C
1381 22-07-2017 19:00:00 29.1 C 45 % 15.95 C
1382 22-07-2017 19:05:00 29.3 C 48 % 17.15 C
1383 22-07-2017 19:10:00 29.2 C 54 % 18.93 C
1384 22-07-2017 19:15:00 28.8 C 58 % 19.71 C
1385 22-07-2017 19:20:00 28.3 C 58 % 19.24 C
1386 22-07-2017 19:25:00 27.8 C 60 % 19.32 C
1387 22-07-2017 19:30:00 27.4 C 63 % 19.73 C
1388 22-07-2017 19:35:00 27.1 C 63 % 19.45 C
1389 22-07-2017 19:40:00 27 C 63 % 19.35 C
1390 22-07-2017 19:45:00 27.1 C 63 % 19.45 C
1391 22-07-2017 19:50:00 27.1 C 63 % 19.45 C
1392 22-07-2017 19:55:00 27.2 C 67 % 20.54 C
1393 22-07-2017 20:00:00 27.1 C 67 % 20.44 C
1394 22-07-2017 20:05:00 27 C 60 % 18.57 C
1395 22-07-2017 20:10:00 26.9 C 68 % 20.49 C
1396 22-07-2017 20:15:00 26.8 C 67 % 20.16 C
1397 22-07-2017 20:20:00 26.8 C 68 % 20.4 C
1398 22-07-2017 20:25:00 26.8 C 67 % 20.16 C
1399 22-07-2017 20:30:00 26.7 C 65 % 19.57 C
1400 22-07-2017 20:35:00 26.6 C 68 % 20.2 C
Sensor: Nr:Datum:Temp:Feuchte:Taupunkt:
Aussen-T/F 1401 22-07-2017 20:40:00 26.4 C 64 % 19.04 C
1402 22-07-2017 20:45:00 26.1 C 66 % 19.25 C
1403 22-07-2017 20:50:00 25.8 C 67 % 19.2 C
1404 22-07-2017 20:55:00 25.5 C 70 % 19.62 C
1405 22-07-2017 21:00:00 25 C 70 % 19.15 C
1406 22-07-2017 21:05:00 24.4 C 72 % 19.02 C
1407 22-07-2017 21:10:00 23.9 C 72 % 18.54 C
1408 22-07-2017 21:15:00 23.6 C 73 % 18.48 C
1409 22-07-2017 21:20:00 23.2 C 74 % 18.31 C
1410 22-07-2017 21:25:00 22.9 C 75 % 18.23 C
1411 22-07-2017 21:30:00 22.7 C 77 % 18.46 C
1412 22-07-2017 21:35:00 22.3 C 78 % 18.28 C
1413 22-07-2017 21:40:00 22 C 78 % 17.99 C
1414 22-07-2017 21:45:00 21.7 C 79 % 17.9 C
1415 22-07-2017 21:50:00 21.4 C 79 % 17.61 C
1416 22-07-2017 21:55:00 21.2 C 80 % 17.61 C
1417 22-07-2017 22:00:00 21 C 82 % 17.81 C
1418 22-07-2017 22:05:00 20.8 C 83 % 17.81 C
1419 22-07-2017 22:10:00 20.6 C 84 % 17.8 C
1420 22-07-2017 22:15:00 20.4 C 85 % 17.79 C
1421 22-07-2017 22:20:00 20.3 C 85 % 17.7 C
1422 22-07-2017 22:25:00 20.1 C 85 % 17.5 C
1423 22-07-2017 22:30:00 20 C 86 % 17.59 C
1424 22-07-2017 22:35:00 19.8 C 86 % 17.39 C
1425 22-07-2017 22:40:00 19.7 C 86 % 17.29 C
Sensor: Nr:Datum:Temp:Feuchte:Taupunkt:
Aussen-T/F 1426 22-07-2017 22:45:00 19.7 C 87 % 17.47 C
1427 22-07-2017 22:50:00 19.6 C 87 % 17.38 C
1428 22-07-2017 22:55:00 19.7 C 88 % 17.66 C
1429 22-07-2017 23:00:00 19.7 C 88 % 17.66 C
1430 22-07-2017 23:05:00 19.8 C 88 % 17.75 C
1431 22-07-2017 23:10:00 19.8 C 86 % 17.39 C
1432 22-07-2017 23:15:00 20.1 C 84 % 17.31 C
1433 22-07-2017 23:20:00 20.3 C 84 % 17.51 C
1434 22-07-2017 23:25:00 20.6 C 84 % 17.8 C
1435 22-07-2017 23:30:00 20.7 C 84 % 17.9 C
1436 22-07-2017 23:35:00 20.8 C 86 % 18.37 C
1437 22-07-2017 23:40:00 20.8 C 86 % 18.37 C
1438 22-07-2017 23:45:00 20.7 C 87 % 18.46 C
1439 22-07-2017 23:50:00 20.5 C 89 % 18.62 C
1440 22-07-2017 23:55:00 19.7 C 88 % 17.66 C
1441 23-07-2017 00:00:00 19.1 C 90 % 17.42 C
1442 23-07-2017 00:05:00 18.8 C 91 % 17.3 C
1443 23-07-2017 00:10:00 18.6 C 91 % 17.1 C
1444 23-07-2017 00:15:00 18.4 C 92 % 17.08 C
1445 23-07-2017 00:20:00 18.3 C 92 % 16.98 C
1446 23-07-2017 00:25:00 18.2 C 93 % 17.05 C
1447 23-07-2017 00:30:00 18.1 C 93 % 16.95 C
1448 23-07-2017 00:35:00 18.1 C 93 % 16.95 C
1449 23-07-2017 00:40:00 17.9 C 93 % 16.75 C
1450 23-07-2017 00:45:00 17.9 C 93 % 16.75 C
Sensor: Nr:Datum:Temp:Feuchte:Taupunkt:
Aussen-T/F 1451 23-07-2017 00:50:00 17.8 C 93 % 16.65 C
1452 23-07-2017 00:55:00 17.8 C 94 % 16.82 C
1453 23-07-2017 01:00:00 17.8 C 94 % 16.82 C
1454 23-07-2017 01:05:00 17.7 C 94 % 16.72 C
1455 23-07-2017 01:10:00 17.7 C 94 % 16.72 C
1456 23-07-2017 01:15:00 17.7 C 94 % 16.72 C
1457 23-07-2017 01:20:00 17.6 C 94 % 16.62 C
1458 23-07-2017 01:25:00 17.6 C 94 % 16.62 C
1459 23-07-2017 01:30:00 17.5 C 94 % 16.52 C
1460 23-07-2017 01:35:00 17.4 C 94 % 16.42 C
1461 23-07-2017 01:40:00 17.4 C 94 % 16.42 C
1462 23-07-2017 01:45:00 17.4 C 95 % 16.59 C
1463 23-07-2017 01:50:00 17.3 C 95 % 16.49 C
1464 23-07-2017 01:55:00 17.3 C 95 % 16.49 C
1465 23-07-2017 02:00:00 17.3 C 95 % 16.49 C
1466 23-07-2017 02:05:00 17.3 C 95 % 16.49 C
1467 23-07-2017 02:10:00 17.3 C 95 % 16.49 C
1468 23-07-2017 02:15:00 17.4 C 95 % 16.59 C
1469 23-07-2017 02:20:00 17.3 C 95 % 16.49 C
1470 23-07-2017 02:25:00 17.3 C 95 % 16.49 C
1471 23-07-2017 02:30:00 17.2 C 95 % 16.39 C
1472 23-07-2017 02:35:00 17.2 C 95 % 16.39 C
1473 23-07-2017 02:40:00 17.2 C 95 % 16.39 C
1474 23-07-2017 02:45:00 17.1 C 95 % 16.29 C
1475 23-07-2017 02:50:00 17.1 C 95 % 16.29 C
Sensor: Nr:Datum:Temp:Feuchte:Taupunkt:
Aussen-T/F 1476 23-07-2017 02:55:00 17.1 C 95 % 16.29 C
1477 23-07-2017 03:00:00 17 C 95 % 16.19 C
1478 23-07-2017 03:05:00 17 C 95 % 16.19 C
1479 23-07-2017 03:10:00 16.9 C 95 % 16.09 C
1480 23-07-2017 03:15:00 16.8 C 95 % 15.99 C
1481 23-07-2017 03:20:00 16.8 C 95 % 15.99 C
1482 23-07-2017 03:25:00 16.8 C 95 % 15.99 C
1483 23-07-2017 03:30:00 16.8 C 95 % 15.99 C
1484 23-07-2017 03:35:00 16.8 C 95 % 15.99 C
1485 23-07-2017 03:40:00 16.7 C 95 % 15.9 C
1486 23-07-2017 03:45:00 16.7 C 95 % 15.9 C
1487 23-07-2017 03:50:00 16.6 C 95 % 15.8 C
1488 23-07-2017 03:55:00 16.5 C 95 % 15.7 C
1489 23-07-2017 04:00:00 16.4 C 95 % 15.6 C
1490 23-07-2017 04:05:00 16.3 C 95 % 15.5 C
1491 23-07-2017 04:10:00 16.2 C 95 % 15.4 C
1492 23-07-2017 04:15:00 16.2 C 95 % 15.4 C
1493 23-07-2017 04:20:00 16.1 C 95 % 15.3 C
1494 23-07-2017 04:25:00 15.9 C 95 % 15.1 C
1495 23-07-2017 04:30:00 15.9 C 95 % 15.1 C
1496 23-07-2017 04:35:00 15.9 C 96 % 15.26 C
1497 23-07-2017 04:40:00 15.8 C 96 % 15.16 C
1498 23-07-2017 04:45:00 15.8 C 96 % 15.16 C
1499 23-07-2017 04:50:00 15.8 C 96 % 15.16 C
1500 23-07-2017 04:55:00 15.9 C 96 % 15.26 C
Sensor: Nr:Datum:Temp:Feuchte:Taupunkt:
Aussen-T/F 1501 23-07-2017 05:00:00 15.9 C 96 % 15.26 C
1502 23-07-2017 05:05:00 15.8 C 96 % 15.16 C
1503 23-07-2017 05:10:00 15.8 C 96 % 15.16 C
1504 23-07-2017 05:15:00 15.7 C 96 % 15.06 C
1505 23-07-2017 05:20:00 15.7 C 96 % 15.06 C
1506 23-07-2017 05:25:00 15.7 C 96 % 15.06 C
1507 23-07-2017 05:30:00 15.6 C 96 % 14.96 C
1508 23-07-2017 05:35:00 15.6 C 96 % 14.96 C
1509 23-07-2017 05:40:00 15.5 C 96 % 14.86 C
1510 23-07-2017 05:45:00 15.4 C 96 % 14.77 C
1511 23-07-2017 05:50:00 15.4 C 96 % 14.77 C
1512 23-07-2017 05:55:00 15.3 C 96 % 14.67 C
1513 23-07-2017 06:00:00 15.3 C 96 % 14.67 C
1514 23-07-2017 06:05:00 15.3 C 96 % 14.67 C
1515 23-07-2017 06:10:00 15.3 C 96 % 14.67 C
1516 23-07-2017 06:15:00 15.3 C 96 % 14.67 C
1517 23-07-2017 06:20:00 15.3 C 96 % 14.67 C
1518 23-07-2017 06:25:00 15.3 C 96 % 14.67 C
1519 23-07-2017 06:30:00 15.4 C 96 % 14.77 C
1520 23-07-2017 06:35:00 15.4 C 96 % 14.77 C
1521 23-07-2017 06:40:00 15.4 C 96 % 14.77 C
1522 23-07-2017 06:45:00 15.5 C 97 % 15.03 C
1523 23-07-2017 06:50:00 15.6 C 97 % 15.13 C
1524 23-07-2017 06:55:00 15.7 C 97 % 15.23 C
1525 23-07-2017 07:00:00 15.7 C 96 % 15.06 C
Sensor: Nr:Datum:Temp:Feuchte:Taupunkt:
Aussen-T/F 1526 23-07-2017 07:05:00 15.8 C 96 % 15.16 C
1527 23-07-2017 07:10:00 15.8 C 96 % 15.16 C
1528 23-07-2017 07:15:00 15.8 C 96 % 15.16 C
1529 23-07-2017 07:20:00 15.8 C 96 % 15.16 C
1530 23-07-2017 07:25:00 15.7 C 96 % 15.06 C
1531 23-07-2017 07:30:00 15.7 C 96 % 15.06 C
1532 23-07-2017 07:35:00 15.8 C 96 % 15.16 C
1533 23-07-2017 07:40:00 15.8 C 96 % 15.16 C
1534 23-07-2017 07:45:00 15.8 C 96 % 15.16 C
1535 23-07-2017 07:50:00 15.7 C 96 % 15.06 C
1536 23-07-2017 07:55:00 15.7 C 96 % 15.06 C
1537 23-07-2017 08:00:00 15.6 C 96 % 14.96 C
1538 23-07-2017 08:05:00 15.6 C 96 % 14.96 C
1539 23-07-2017 08:10:00 15.6 C 96 % 14.96 C
1540 23-07-2017 08:15:00 15.7 C 97 % 15.23 C
1541 23-07-2017 08:20:00 15.8 C 97 % 15.32 C
1542 23-07-2017 08:25:00 16 C 97 % 15.52 C
1543 23-07-2017 08:30:00 16.1 C 97 % 15.62 C
1544 23-07-2017 08:35:00 16 C 97 % 15.52 C
1545 23-07-2017 08:40:00 16 C 96 % 15.36 C
1546 23-07-2017 08:45:00 16.1 C 96 % 15.46 C
1547 23-07-2017 08:50:00 16.1 C 96 % 15.46 C
1548 23-07-2017 08:55:00 16.2 C 96 % 15.56 C
1549 23-07-2017 09:00:00 16.1 C 96 % 15.46 C
1550 23-07-2017 09:05:00 16 C 96 % 15.36 C
Sensor: Nr:Datum:Temp:Feuchte:Taupunkt:
Aussen-T/F 1551 23-07-2017 09:10:00 16 C 96 % 15.36 C
1552 23-07-2017 09:15:00 16 C 96 % 15.36 C
1553 23-07-2017 09:20:00 15.9 C 96 % 15.26 C
1554 23-07-2017 09:25:00 16 C 96 % 15.36 C
1555 23-07-2017 09:30:00 16.1 C 96 % 15.46 C
1556 23-07-2017 09:35:00 16 C 95 % 15.2 C
1557 23-07-2017 09:40:00 16 C 95 % 15.2 C
1558 23-07-2017 09:45:00 15.9 C 94 % 14.94 C
1559 23-07-2017 09:50:00 15.9 C 93 % 14.77 C
1560 23-07-2017 09:55:00 16.1 C 94 % 15.13 C
1561 23-07-2017 10:00:00 16.1 C 92 % 14.8 C
1562 23-07-2017 10:05:00 16.3 C 92 % 15 C
1563 23-07-2017 10:10:00 16.6 C 88 % 14.6 C
1564 23-07-2017 10:15:00 16.9 C 87 % 14.72 C
1565 23-07-2017 10:20:00 17.3 C 85 % 14.76 C
1566 23-07-2017 10:25:00 17.5 C 81 % 14.2 C
1567 23-07-2017 10:30:00 17.7 C 81 % 14.4 C
1568 23-07-2017 10:35:00 17.8 C 78 % 13.91 C
1569 23-07-2017 10:40:00 18.1 C 80 % 14.6 C
1570 23-07-2017 10:45:00 18.1 C 81 % 14.79 C
1571 23-07-2017 10:50:00 18.2 C 77 % 14.1 C
1572 23-07-2017 10:55:00 18.2 C 75 % 13.7 C
1573 23-07-2017 11:00:00 18.1 C 76 % 13.81 C
1574 23-07-2017 11:05:00 18.1 C 77 % 14.01 C
1575 23-07-2017 11:10:00 18.1 C 78 % 14.21 C
Sensor: Nr:Datum:Temp:Feuchte:Taupunkt:
Aussen-T/F 1576 23-07-2017 11:15:00 18.2 C 75 % 13.7 C
1577 23-07-2017 11:20:00 18.3 C 74 % 13.59 C
1578 23-07-2017 11:25:00 18.2 C 75 % 13.7 C
1579 23-07-2017 11:30:00 17.9 C 76 % 13.61 C
1580 23-07-2017 11:35:00 17.8 C 76 % 13.52 C
1581 23-07-2017 11:40:00 17.8 C 79 % 14.11 C
1582 23-07-2017 11:45:00 17.9 C 75 % 13.41 C
1583 23-07-2017 11:50:00 18.3 C 76 % 14 C
1584 23-07-2017 11:55:00 18.6 C 72 % 13.46 C
1585 23-07-2017 12:00:00 18.8 C 72 % 13.65 C
1586 23-07-2017 12:05:00 18.8 C 71 % 13.43 C
1587 23-07-2017 12:10:00 18.8 C 70 % 13.22 C
1588 23-07-2017 12:15:00 18.7 C 70 % 13.12 C
1589 23-07-2017 12:20:00 18.7 C 69 % 12.9 C
1590 23-07-2017 12:25:00 18.8 C 68 % 12.77 C
1591 23-07-2017 12:30:00 18.9 C 69 % 13.09 C
1592 23-07-2017 12:35:00 19.1 C 65 % 12.37 C
1593 23-07-2017 12:40:00 19.3 C 64 % 12.32 C
1594 23-07-2017 12:45:00 19.4 C 65 % 12.66 C
1595 23-07-2017 12:50:00 19.4 C 65 % 12.66 C
1596 23-07-2017 12:55:00 19.4 C 65 % 12.66 C
1597 23-07-2017 13:00:00 19.3 C 65 % 12.56 C
1598 23-07-2017 13:05:00 19.4 C 62 % 11.94 C
1599 23-07-2017 13:10:00 19.6 C 63 % 12.37 C
1600 23-07-2017 13:15:00 19.7 C 61 % 11.97 C
Sensor: Nr:Datum:Temp:Feuchte:Taupunkt:
Aussen-T/F 1601 23-07-2017 13:20:00 19.7 C 64 % 12.7 C
1602 23-07-2017 13:25:00 19.8 C 63 % 12.56 C
1603 23-07-2017 13:30:00 19.9 C 66 % 13.36 C
1604 23-07-2017 13:35:00 20.1 C 63 % 12.84 C
1605 23-07-2017 13:40:00 20.3 C 63 % 13.03 C
1606 23-07-2017 13:45:00 20.4 C 62 % 12.88 C
1607 23-07-2017 13:50:00 20.4 C 64 % 13.37 C
1608 23-07-2017 13:55:00 20.4 C 60 % 12.38 C
1609 23-07-2017 14:00:00 20.3 C 63 % 13.03 C
1610 23-07-2017 14:05:00 20.3 C 59 % 12.03 C
1611 23-07-2017 14:10:00 20.3 C 60 % 12.29 C
1612 23-07-2017 14:15:00 20.2 C 62 % 12.69 C
1613 23-07-2017 14:20:00 20.1 C 61 % 12.35 C
1614 23-07-2017 14:25:00 20.2 C 62 % 12.69 C
1615 23-07-2017 14:30:00 20.2 C 61 % 12.44 C
1616 23-07-2017 14:35:00 20.2 C 63 % 12.94 C
1617 23-07-2017 14:40:00 20.3 C 61 % 12.54 C
1618 23-07-2017 14:45:00 20.6 C 63 % 13.31 C
1619 23-07-2017 14:50:00 20.7 C 60 % 12.66 C
1620 23-07-2017 14:55:00 20.8 C 61 % 13.01 C
1621 23-07-2017 15:00:00 20.8 C 60 % 12.76 C
1622 23-07-2017 15:05:00 20.9 C 58 % 12.33 C
1623 23-07-2017 15:10:00 21.1 C 60 % 13.04 C
1624 23-07-2017 15:15:00 21.1 C 58 % 12.52 C
1625 23-07-2017 15:20:00 21.2 C 60 % 13.13 C
Sensor: Nr:Datum:Temp:Feuchte:Taupunkt:
Aussen-T/F 1626 23-07-2017 15:25:00 21.4 C 58 % 12.8 C
1627 23-07-2017 15:30:00 21.5 C 56 % 12.36 C
1628 23-07-2017 15:35:00 21.8 C 57 % 12.91 C
1629 23-07-2017 15:40:00 22.3 C 56 % 13.1 C
1630 23-07-2017 15:45:00 22.7 C 53 % 12.63 C
1631 23-07-2017 15:50:00 22.8 C 51 % 12.14 C
1632 23-07-2017 15:55:00 22.3 C 52 % 11.97 C
1633 23-07-2017 16:00:00 21.8 C 52 % 11.51 C
1634 23-07-2017 16:05:00 21.6 C 55 % 12.18 C
1635 23-07-2017 16:10:00 21.8 C 56 % 12.64 C
1636 23-07-2017 16:15:00 22 C 53 % 11.99 C
1637 23-07-2017 16:20:00 22.2 C 57 % 13.28 C
1638 23-07-2017 16:25:00 22.1 C 56 % 12.92 C
1639 23-07-2017 16:30:00 22.1 C 56 % 12.92 C
1640 23-07-2017 16:35:00 22.7 C 54 % 12.92 C
1641 23-07-2017 16:40:00 23.2 C 50 % 12.21 C
1642 23-07-2017 16:45:00 23 C 49 % 11.72 C
1643 23-07-2017 16:50:00 22.4 C 51 % 11.77 C
1644 23-07-2017 16:55:00 22.5 C 55 % 13.01 C
1645 23-07-2017 17:00:00 23.1 C 58 % 14.39 C
1646 23-07-2017 17:05:00 23.2 C 53 % 13.09 C
1647 23-07-2017 17:10:00 23.3 C 52 % 12.9 C
1648 23-07-2017 17:15:00 23.3 C 48 % 11.68 C
1649 23-07-2017 17:20:00 22.6 C 50 % 11.66 C
1650 23-07-2017 17:25:00 22.3 C 53 % 12.26 C
Sensor: Nr:Datum:Temp:Feuchte:Taupunkt:
Aussen-T/F 1651 23-07-2017 17:30:00 22.6 C 53 % 12.54 C
1652 23-07-2017 17:35:00 22.7 C 52 % 12.34 C
1653 23-07-2017 17:40:00 22.4 C 51 % 11.77 C
1654 23-07-2017 17:45:00 22.1 C 54 % 12.36 C
1655 23-07-2017 17:50:00 22.1 C 54 % 12.36 C
1656 23-07-2017 17:55:00 21.9 C 55 % 12.46 C
1657 23-07-2017 18:00:00 21.9 C 54 % 12.18 C
1658 23-07-2017 18:05:00 22.2 C 53 % 12.17 C
1659 23-07-2017 18:10:00 22.6 C 52 % 12.25 C
1660 23-07-2017 18:15:00 22.4 C 52 % 12.07 C
1661 23-07-2017 18:20:00 22.1 C 54 % 12.36 C
1662 23-07-2017 18:25:00 22.1 C 54 % 12.36 C
1663 23-07-2017 18:30:00 22.2 C 56 % 13.01 C
1664 23-07-2017 18:35:00 22.6 C 56 % 13.38 C
1665 23-07-2017 18:40:00 23 C 51 % 12.32 C
1666 23-07-2017 18:45:00 23.1 C 51 % 12.42 C
1667 23-07-2017 18:50:00 23.1 C 51 % 12.42 C
1668 23-07-2017 18:55:00 22.7 C 52 % 12.34 C
1669 23-07-2017 19:00:00 22.4 C 53 % 12.36 C
1670 23-07-2017 19:05:00 22.2 C 54 % 12.45 C
1671 23-07-2017 19:10:00 22.3 C 58 % 13.64 C
1672 23-07-2017 19:15:00 22.4 C 57 % 13.47 C
1673 23-07-2017 19:20:00 22.1 C 58 % 13.45 C
1674 23-07-2017 19:25:00 21.6 C 57 % 12.72 C
1675 23-07-2017 19:30:00 21.3 C 58 % 12.71 C
Sensor: Nr:Datum:Temp:Feuchte:Taupunkt:
Aussen-T/F 1676 23-07-2017 19:35:00 21.3 C 61 % 13.48 C
1677 23-07-2017 19:40:00 21.2 C 63 % 13.88 C
1678 23-07-2017 19:45:00 21 C 66 % 14.41 C
1679 23-07-2017 19:50:00 20.7 C 68 % 14.58 C
1680 23-07-2017 19:55:00 20.3 C 67 % 13.97 C
1681 23-07-2017 20:00:00 20.1 C 69 % 14.24 C
1682 23-07-2017 20:05:00 19.8 C 69 % 13.95 C
1683 23-07-2017 20:10:00 19.5 C 67 % 13.21 C
1684 23-07-2017 20:15:00 19.3 C 70 % 13.69 C
1685 23-07-2017 20:20:00 19.2 C 70 % 13.6 C
1686 23-07-2017 20:25:00 19 C 72 % 13.84 C
1687 23-07-2017 20:30:00 18.8 C 72 % 13.65 C
1688 23-07-2017 20:35:00 18.7 C 73 % 13.76 C
1689 23-07-2017 20:40:00 18.6 C 74 % 13.88 C
1690 23-07-2017 20:45:00 18.4 C 73 % 13.48 C
1691 23-07-2017 20:50:00 18.4 C 74 % 13.68 C
1692 23-07-2017 20:55:00 18.3 C 74 % 13.59 C
1693 23-07-2017 21:00:00 18.2 C 73 % 13.28 C
1694 23-07-2017 21:05:00 18.2 C 74 % 13.49 C
1695 23-07-2017 21:10:00 18.1 C 75 % 13.6 C
1696 23-07-2017 21:15:00 18 C 75 % 13.51 C
1697 23-07-2017 21:20:00 17.9 C 75 % 13.41 C
1698 23-07-2017 21:25:00 17.8 C 77 % 13.72 C
1699 23-07-2017 21:30:00 17.7 C 76 % 13.42 C
1700 23-07-2017 21:35:00 17.5 C 75 % 13.02 C
Sensor: Nr:Datum:Temp:Feuchte:Taupunkt:
Aussen-T/F 1701 23-07-2017 21:40:00 17.3 C 77 % 13.23 C
1702 23-07-2017 21:45:00 17.2 C 77 % 13.14 C
1703 23-07-2017 21:50:00 17.1 C 78 % 13.24 C
1704 23-07-2017 21:55:00 17 C 78 % 13.14 C
1705 23-07-2017 22:00:00 16.9 C 78 % 13.04 C
1706 23-07-2017 22:05:00 16.8 C 78 % 12.94 C
1707 23-07-2017 22:10:00 16.8 C 78 % 12.94 C
1708 23-07-2017 22:15:00 16.7 C 78 % 12.85 C
1709 23-07-2017 22:20:00 16.6 C 79 % 12.95 C
1710 23-07-2017 22:25:00 16.6 C 80 % 13.14 C
1711 23-07-2017 22:30:00 16.5 C 80 % 13.04 C
1712 23-07-2017 22:35:00 16.4 C 79 % 12.75 C
1713 23-07-2017 22:40:00 16.3 C 80 % 12.85 C
1714 23-07-2017 22:45:00 16.2 C 79 % 12.56 C
1715 23-07-2017 22:50:00 16.1 C 80 % 12.65 C
1716 23-07-2017 22:55:00 16 C 80 % 12.55 C
1717 23-07-2017 23:00:00 15.9 C 81 % 12.65 C
1718 23-07-2017 23:05:00 15.8 C 82 % 12.74 C
1719 23-07-2017 23:10:00 15.8 C 82 % 12.74 C
1720 23-07-2017 23:15:00 15.7 C 83 % 12.82 C
1721 23-07-2017 23:20:00 15.7 C 83 % 12.82 C
1722 23-07-2017 23:25:00 15.6 C 84 % 12.91 C
1723 23-07-2017 23:30:00 15.5 C 85 % 12.99 C
1724 23-07-2017 23:35:00 15.4 C 85 % 12.89 C
1725 23-07-2017 23:40:00 15.4 C 85 % 12.89 C
Sensor: Nr:Datum:Temp:Feuchte:Taupunkt:
Aussen-T/F 1726 23-07-2017 23:45:00 15.3 C 86 % 12.97 C
1727 23-07-2017 23:50:00 15.3 C 86 % 12.97 C
1728 23-07-2017 23:55:00 15.2 C 86 % 12.88 C
1729 24-07-2017 00:00:00 15.2 C 86 % 12.88 C
1730 24-07-2017 00:05:00 15.1 C 85 % 12.6 C
1731 24-07-2017 00:10:00 15 C 86 % 12.68 C
1732 24-07-2017 00:15:00 14.9 C 86 % 12.58 C
1733 24-07-2017 00:20:00 14.9 C 86 % 12.58 C
1734 24-07-2017 00:25:00 14.8 C 86 % 12.48 C
1735 24-07-2017 00:30:00 14.8 C 87 % 12.66 C
1736 24-07-2017 00:35:00 14.7 C 86 % 12.38 C
1737 24-07-2017 00:40:00 14.7 C 87 % 12.56 C
1738 24-07-2017 00:45:00 14.7 C 87 % 12.56 C
1739 24-07-2017 00:50:00 14.7 C 87 % 12.56 C
1740 24-07-2017 00:55:00 14.7 C 86 % 12.38 C
1741 24-07-2017 01:00:00 14.7 C 86 % 12.38 C
1742 24-07-2017 01:05:00 14.7 C 86 % 12.38 C
1743 24-07-2017 01:10:00 14.7 C 85 % 12.21 C
1744 24-07-2017 01:15:00 14.7 C 85 % 12.21 C
1745 24-07-2017 01:20:00 14.7 C 85 % 12.21 C
1746 24-07-2017 01:25:00 14.8 C 85 % 12.3 C
1747 24-07-2017 01:30:00 14.8 C 86 % 12.48 C
1748 24-07-2017 01:35:00 14.8 C 87 % 12.66 C
1749 24-07-2017 01:40:00 14.8 C 86 % 12.48 C
1750 24-07-2017 01:45:00 14.7 C 86 % 12.38 C
Sensor: Nr:Datum:Temp:Feuchte:Taupunkt:
Aussen-T/F 1751 24-07-2017 01:50:00 14.8 C 86 % 12.48 C
1752 24-07-2017 01:55:00 14.8 C 86 % 12.48 C
1753 24-07-2017 02:00:00 14.9 C 87 % 12.76 C
1754 24-07-2017 02:05:00 14.9 C 87 % 12.76 C
1755 24-07-2017 02:10:00 15 C 86 % 12.68 C
1756 24-07-2017 02:15:00 14.9 C 86 % 12.58 C
1757 24-07-2017 02:20:00 15 C 86 % 12.68 C
1758 24-07-2017 02:25:00 15 C 87 % 12.86 C
1759 24-07-2017 02:30:00 15.1 C 87 % 12.95 C
1760 24-07-2017 02:35:00 15.1 C 88 % 13.13 C
1761 24-07-2017 02:40:00 15.1 C 89 % 13.3 C
1762 24-07-2017 02:45:00 15.1 C 89 % 13.3 C
1763 24-07-2017 02:50:00 15 C 90 % 13.37 C
1764 24-07-2017 02:55:00 15 C 91 % 13.54 C
1765 24-07-2017 03:00:00 14.9 C 91 % 13.44 C
1766 24-07-2017 03:05:00 14.8 C 91 % 13.35 C
1767 24-07-2017 03:10:00 14.7 C 91 % 13.25 C
1768 24-07-2017 03:15:00 14.7 C 91 % 13.25 C
1769 24-07-2017 03:20:00 14.6 C 91 % 13.15 C
1770 24-07-2017 03:25:00 14.6 C 92 % 13.32 C
1771 24-07-2017 03:30:00 14.4 C 92 % 13.12 C
1772 24-07-2017 03:35:00 14.4 C 92 % 13.12 C
1773 24-07-2017 03:40:00 14.4 C 92 % 13.12 C
1774 24-07-2017 03:45:00 14.4 C 92 % 13.12 C
1775 24-07-2017 03:50:00 14.3 C 92 % 13.02 C
Sensor: Nr:Datum:Temp:Feuchte:Taupunkt:
Aussen-T/F 1776 24-07-2017 03:55:00 14.3 C 93 % 13.18 C
1777 24-07-2017 04:00:00 14.3 C 93 % 13.18 C
1778 24-07-2017 04:05:00 14.3 C 93 % 13.18 C
1779 24-07-2017 04:10:00 14.4 C 93 % 13.28 C
1780 24-07-2017 04:15:00 14.4 C 93 % 13.28 C
1781 24-07-2017 04:20:00 14.3 C 93 % 13.18 C
1782 24-07-2017 04:25:00 14.4 C 93 % 13.28 C
1783 24-07-2017 04:30:00 14.3 C 93 % 13.18 C
1784 24-07-2017 04:35:00 14.3 C 94 % 13.35 C
1785 24-07-2017 04:40:00 14.3 C 94 % 13.35 C
1786 24-07-2017 04:45:00 14.3 C 94 % 13.35 C
1787 24-07-2017 04:50:00 14.2 C 94 % 13.25 C
1788 24-07-2017 04:55:00 14.2 C 94 % 13.25 C
1789 24-07-2017 05:00:00 14.2 C 94 % 13.25 C
1790 24-07-2017 05:05:00 14.2 C 94 % 13.25 C
1791 24-07-2017 05:10:00 14.2 C 94 % 13.25 C
1792 24-07-2017 05:15:00 14.1 C 94 % 13.15 C
1793 24-07-2017 05:20:00 14.1 C 94 % 13.15 C
1794 24-07-2017 05:25:00 14.1 C 94 % 13.15 C
1795 24-07-2017 05:30:00 14.1 C 94 % 13.15 C
1796 24-07-2017 05:35:00 14.1 C 94 % 13.15 C
1797 24-07-2017 05:40:00 14.1 C 94 % 13.15 C
1798 24-07-2017 05:45:00 14 C 94 % 13.05 C
1799 24-07-2017 05:50:00 14 C 94 % 13.05 C
1800 24-07-2017 05:55:00 14 C 94 % 13.05 C
Sensor: Nr:Datum:Temp:Feuchte:Taupunkt:
Aussen-T/F 1801 24-07-2017 06:00:00 14 C 94 % 13.05 C
1802 24-07-2017 06:05:00 14 C 94 % 13.05 C
1803 24-07-2017 06:10:00 14.1 C 94 % 13.15 C
1804 24-07-2017 06:15:00 14.1 C 95 % 13.31 C
1805 24-07-2017 06:20:00 14.1 C 95 % 13.31 C
1806 24-07-2017 06:25:00 14.1 C 95 % 13.31 C
1807 24-07-2017 06:30:00 14.1 C 95 % 13.31 C
1808 24-07-2017 06:35:00 14.1 C 95 % 13.31 C
1809 24-07-2017 06:40:00 14.1 C 95 % 13.31 C
1810 24-07-2017 06:45:00 14.1 C 95 % 13.31 C
1811 24-07-2017 06:50:00 14.2 C 95 % 13.41 C
1812 24-07-2017 06:55:00 14.2 C 95 % 13.41 C
1813 24-07-2017 07:00:00 14.2 C 95 % 13.41 C
1814 24-07-2017 07:05:00 14.2 C 95 % 13.41 C
1815 24-07-2017 07:10:00 14.2 C 95 % 13.41 C
1816 24-07-2017 07:15:00 14.2 C 95 % 13.41 C
1817 24-07-2017 07:20:00 14.2 C 95 % 13.41 C
1818 24-07-2017 07:25:00 14.2 C 95 % 13.41 C
1819 24-07-2017 07:30:00 14.1 C 95 % 13.31 C
1820 24-07-2017 07:35:00 14 C 95 % 13.21 C
1821 24-07-2017 07:40:00 14 C 95 % 13.21 C
1822 24-07-2017 07:45:00 13.9 C 95 % 13.11 C
1823 24-07-2017 07:50:00 13.9 C 95 % 13.11 C
1824 24-07-2017 07:55:00 13.8 C 95 % 13.01 C
1825 24-07-2017 08:00:00 13.8 C 95 % 13.01 C
Sensor: Nr:Datum:Temp:Feuchte:Taupunkt:
Aussen-T/F 1826 24-07-2017 08:05:00 13.8 C 95 % 13.01 C
1827 24-07-2017 08:10:00 13.9 C 95 % 13.11 C
1828 24-07-2017 08:15:00 13.9 C 95 % 13.11 C
1829 24-07-2017 08:20:00 13.9 C 95 % 13.11 C
1830 24-07-2017 08:25:00 13.9 C 95 % 13.11 C
1831 24-07-2017 08:30:00 13.9 C 95 % 13.11 C
1832 24-07-2017 08:35:00 13.9 C 95 % 13.11 C
1833 24-07-2017 08:40:00 13.8 C 95 % 13.01 C
1834 24-07-2017 08:45:00 13.9 C 95 % 13.11 C
1835 24-07-2017 08:50:00 13.9 C 95 % 13.11 C
1836 24-07-2017 08:55:00 13.9 C 96 % 13.27 C
1837 24-07-2017 09:00:00 14 C 96 % 13.37 C
1838 24-07-2017 09:05:00 13.9 C 96 % 13.27 C
1839 24-07-2017 09:10:00 14 C 96 % 13.37 C
1840 24-07-2017 09:15:00 14 C 96 % 13.37 C
1841 24-07-2017 09:20:00 14.1 C 96 % 13.47 C
1842 24-07-2017 09:25:00 14.1 C 96 % 13.47 C
1843 24-07-2017 09:30:00 14.1 C 96 % 13.47 C
1844 24-07-2017 09:35:00 14.2 C 96 % 13.57 C
1845 24-07-2017 09:40:00 14.3 C 96 % 13.67 C
1846 24-07-2017 09:45:00 14.3 C 96 % 13.67 C
1847 24-07-2017 09:50:00 14.4 C 96 % 13.77 C
1848 24-07-2017 09:55:00 14.4 C 96 % 13.77 C
1849 24-07-2017 10:00:00 14.5 C 96 % 13.87 C
1850 24-07-2017 10:05:00 14.6 C 96 % 13.97 C
Sensor: Nr:Datum:Temp:Feuchte:Taupunkt:
Aussen-T/F 1851 24-07-2017 10:10:00 14.7 C 96 % 14.07 C
1852 24-07-2017 10:15:00 14.8 C 96 % 14.17 C
1853 24-07-2017 10:20:00 14.7 C 95 % 13.91 C
1854 24-07-2017 10:25:00 14.6 C 95 % 13.81 C
1855 24-07-2017 10:30:00 14.6 C 95 % 13.81 C
1856 24-07-2017 10:35:00 14.6 C 95 % 13.81 C
1857 24-07-2017 10:40:00 14.8 C 95 % 14.01 C
1858 24-07-2017 10:45:00 14.8 C 95 % 14.01 C
1859 24-07-2017 10:50:00 14.8 C 94 % 13.84 C
1860 24-07-2017 10:55:00 14.8 C 95 % 14.01 C
1861 24-07-2017 11:00:00 14.9 C 94 % 13.94 C
1862 24-07-2017 11:05:00 15 C 94 % 14.04 C
1863 24-07-2017 11:10:00 15 C 92 % 13.71 C
1864 24-07-2017 11:15:00 15.1 C 92 % 13.81 C
1865 24-07-2017 11:20:00 15.2 C 92 % 13.91 C
1866 24-07-2017 11:25:00 15.3 C 92 % 14.01 C
1867 24-07-2017 11:30:00 15.4 C 92 % 14.11 C
1868 24-07-2017 11:35:00 15.6 C 92 % 14.31 C
1869 24-07-2017 11:40:00 15.7 C 92 % 14.4 C
1870 24-07-2017 11:45:00 15.7 C 88 % 13.72 C
1871 24-07-2017 11:50:00 15.9 C 87 % 13.74 C
1872 24-07-2017 11:55:00 16.2 C 88 % 14.21 C
1873 24-07-2017 12:00:00 16.4 C 86 % 14.05 C
1874 24-07-2017 12:05:00 16.4 C 86 % 14.05 C
1875 24-07-2017 12:10:00 16.5 C 86 % 14.15 C
Sensor: Nr:Datum:Temp:Feuchte:Taupunkt:
Aussen-T/F 1876 24-07-2017 12:15:00 16.7 C 86 % 14.35 C
1877 24-07-2017 12:20:00 16.7 C 84 % 13.98 C
1878 24-07-2017 12:25:00 16.6 C 83 % 13.7 C
1879 24-07-2017 12:30:00 16.4 C 82 % 13.32 C
1880 24-07-2017 12:35:00 16.4 C 82 % 13.32 C
1881 24-07-2017 12:40:00 16.4 C 83 % 13.51 C
1882 24-07-2017 12:45:00 16.4 C 83 % 13.51 C
1883 24-07-2017 12:50:00 16.6 C 88 % 14.6 C
1884 24-07-2017 12:55:00 16.7 C 86 % 14.35 C
1885 24-07-2017 13:00:00 16.9 C 89 % 15.08 C
1886 24-07-2017 13:05:00 16.9 C 86 % 14.54 C
1887 24-07-2017 13:10:00 16.9 C 83 % 14 C
1888 24-07-2017 13:15:00 16.9 C 83 % 14 C
1889 24-07-2017 13:20:00 17.1 C 82 % 14 C
1890 24-07-2017 13:25:00 17.2 C 84 % 14.47 C
1891 24-07-2017 13:30:00 17.3 C 85 % 14.76 C
1892 24-07-2017 13:35:00 17.3 C 85 % 14.76 C
1893 24-07-2017 13:40:00 17.2 C 84 % 14.47 C
1894 24-07-2017 13:45:00 17.1 C 85 % 14.56 C
1895 24-07-2017 13:50:00 17.2 C 88 % 15.2 C
1896 24-07-2017 13:55:00 17.3 C 90 % 15.64 C
1897 24-07-2017 14:00:00 17.4 C 89 % 15.57 C
1898 24-07-2017 14:05:00 17.5 C 87 % 15.31 C
1899 24-07-2017 14:10:00 17.6 C 87 % 15.41 C
1900 24-07-2017 14:15:00 17.8 C 90 % 16.14 C
Sensor: Nr:Datum:Temp:Feuchte:Taupunkt:
Aussen-T/F 1901 24-07-2017 14:20:00 17.9 C 89 % 16.06 C
1902 24-07-2017 14:25:00 17.8 C 85 % 15.25 C
1903 24-07-2017 14:30:00 17.7 C 79 % 14.01 C
1904 24-07-2017 14:35:00 17.4 C 80 % 13.92 C
1905 24-07-2017 14:40:00 17.2 C 80 % 13.72 C
1906 24-07-2017 14:45:00 16.9 C 81 % 13.62 C
1907 24-07-2017 14:50:00 16.7 C 83 % 13.8 C
1908 24-07-2017 14:55:00 16.6 C 83 % 13.7 C
1909 24-07-2017 15:00:00 16.6 C 83 % 13.7 C
1910 24-07-2017 15:05:00 16.7 C 85 % 14.17 C
1911 24-07-2017 15:10:00 17 C 84 % 14.28 C
1912 24-07-2017 15:15:00 17.2 C 82 % 14.1 C
1913 24-07-2017 15:20:00 17.3 C 83 % 14.39 C
1914 24-07-2017 15:25:00 17.3 C 81 % 14.01 C
1915 24-07-2017 15:30:00 17.3 C 82 % 14.2 C
1916 24-07-2017 15:35:00 17.3 C 85 % 14.76 C
1917 24-07-2017 15:40:00 17 C 86 % 14.64 C
1918 24-07-2017 15:45:00 16.8 C 88 % 14.8 C
1919 24-07-2017 15:50:00 16.8 C 89 % 14.98 C
1920 24-07-2017 15:55:00 16.6 C 89 % 14.78 C
1921 24-07-2017 16:00:00 16.6 C 90 % 14.95 C
1922 24-07-2017 16:05:00 16.6 C 91 % 15.13 C
1923 24-07-2017 16:10:00 16.7 C 91 % 15.22 C
1924 24-07-2017 16:15:00 17 C 92 % 15.69 C
1925 24-07-2017 16:20:00 17.3 C 93 % 16.16 C
Sensor: Nr:Datum:Temp:Feuchte:Taupunkt:
Aussen-T/F 1926 24-07-2017 16:25:00 17.4 C 93 % 16.26 C
1927 24-07-2017 16:30:00 17.4 C 92 % 16.09 C
1928 24-07-2017 16:35:00 17.4 C 93 % 16.26 C
1929 24-07-2017 16:40:00 17.6 C 93 % 16.45 C
1930 24-07-2017 16:45:00 17.7 C 93 % 16.55 C
1931 24-07-2017 16:50:00 17.8 C 92 % 16.48 C
1932 24-07-2017 16:55:00 18.1 C 89 % 16.26 C
1933 24-07-2017 17:00:00 17.9 C 86 % 15.53 C
1934 24-07-2017 17:05:00 17.9 C 88 % 15.88 C
1935 24-07-2017 17:10:00 17.8 C 88 % 15.79 C
1936 24-07-2017 17:15:00 17.7 C 88 % 15.69 C
1937 24-07-2017 17:20:00 17.6 C 89 % 15.77 C
1938 24-07-2017 17:25:00 16.8 C 79 % 13.14 C
1939 24-07-2017 17:30:00 15.8 C 83 % 12.92 C
1940 24-07-2017 17:35:00 15.1 C 86 % 12.78 C
1941 24-07-2017 17:40:00 14.6 C 89 % 12.81 C
1942 24-07-2017 17:45:00 14.3 C 90 % 12.68 C
1943 24-07-2017 17:50:00 14.1 C 91 % 12.65 C
1944 24-07-2017 17:55:00 14.1 C 92 % 12.82 C
1945 24-07-2017 18:00:00 14 C 92 % 12.72 C
1946 24-07-2017 18:05:00 14.1 C 93 % 12.99 C
1947 24-07-2017 18:10:00 14.1 C 94 % 13.15 C
1948 24-07-2017 18:15:00 14.1 C 94 % 13.15 C
1949 24-07-2017 18:20:00 14.1 C 94 % 13.15 C
1950 24-07-2017 18:25:00 14.1 C 94 % 13.15 C
Sensor: Nr:Datum:Temp:Feuchte:Taupunkt:
Aussen-T/F 1951 24-07-2017 18:30:00 14.2 C 94 % 13.25 C
1952 24-07-2017 18:35:00 14.2 C 94 % 13.25 C
1953 24-07-2017 18:40:00 14.3 C 95 % 13.51 C
1954 24-07-2017 18:45:00 14.6 C 95 % 13.81 C
1955 24-07-2017 18:50:00 14.8 C 95 % 14.01 C
1956 24-07-2017 18:55:00 15.1 C 96 % 14.47 C
1957 24-07-2017 19:00:00 15.3 C 96 % 14.67 C
1958 24-07-2017 19:05:00 15.3 C 95 % 14.5 C
1959 24-07-2017 19:10:00 15.3 C 95 % 14.5 C
1960 24-07-2017 19:15:00 15.3 C 95 % 14.5 C
1961 24-07-2017 19:20:00 15.3 C 95 % 14.5 C
1962 24-07-2017 19:25:00 15.3 C 95 % 14.5 C
1963 24-07-2017 19:30:00 15.4 C 95 % 14.6 C
1964 24-07-2017 19:35:00 15.3 C 95 % 14.5 C
1965 24-07-2017 19:40:00 15.3 C 95 % 14.5 C
1966 24-07-2017 19:45:00 15.3 C 95 % 14.5 C
1967 24-07-2017 19:50:00 15.4 C 95 % 14.6 C
1968 24-07-2017 19:55:00 15.4 C 95 % 14.6 C
1969 24-07-2017 20:00:00 15.3 C 95 % 14.5 C
1970 24-07-2017 20:05:00 15.2 C 95 % 14.4 C
1971 24-07-2017 20:10:00 15.1 C 94 % 14.14 C
1972 24-07-2017 20:15:00 15.1 C 94 % 14.14 C
1973 24-07-2017 20:20:00 15 C 95 % 14.21 C
1974 24-07-2017 20:25:00 14.9 C 95 % 14.11 C
1975 24-07-2017 20:30:00 14.9 C 95 % 14.11 C
Sensor: Nr:Datum:Temp:Feuchte:Taupunkt:
Aussen-T/F 1976 24-07-2017 20:35:00 14.9 C 95 % 14.11 C
1977 24-07-2017 20:40:00 14.9 C 95 % 14.11 C
1978 24-07-2017 20:45:00 14.9 C 95 % 14.11 C
1979 24-07-2017 20:50:00 14.9 C 95 % 14.11 C
1980 24-07-2017 20:55:00 14.9 C 95 % 14.11 C
1981 24-07-2017 21:00:00 14.8 C 94 % 13.84 C
1982 24-07-2017 21:05:00 14.7 C 94 % 13.74 C
1983 24-07-2017 21:10:00 14.4 C 94 % 13.45 C
1984 24-07-2017 21:15:00 14.3 C 94 % 13.35 C
1985 24-07-2017 21:20:00 14.2 C 94 % 13.25 C
1986 24-07-2017 21:25:00 14.1 C 94 % 13.15 C
1987 24-07-2017 21:30:00 13.9 C 94 % 12.95 C
1988 24-07-2017 21:35:00 13.8 C 94 % 12.85 C
1989 24-07-2017 21:40:00 13.7 C 94 % 12.75 C
1990 24-07-2017 21:45:00 13.7 C 94 % 12.75 C
1991 24-07-2017 21:50:00 13.6 C 94 % 12.65 C
1992 24-07-2017 21:55:00 13.6 C 95 % 12.81 C
1993 24-07-2017 22:00:00 13.5 C 95 % 12.72 C
1994 24-07-2017 22:05:00 13.4 C 95 % 12.62 C
1995 24-07-2017 22:10:00 13.4 C 95 % 12.62 C
1996 24-07-2017 22:15:00 13.3 C 95 % 12.52 C
1997 24-07-2017 22:20:00 13.3 C 95 % 12.52 C
1998 24-07-2017 22:25:00 13.2 C 95 % 12.42 C
1999 24-07-2017 22:30:00 13.1 C 95 % 12.32 C
2000 24-07-2017 22:35:00 13 C 95 % 12.22 C
Sensor: Nr:Datum:Temp:Feuchte:Taupunkt:
Aussen-T/F 2001 24-07-2017 22:40:00 12.9 C 95 % 12.12 C
2002 24-07-2017 22:45:00 12.8 C 95 % 12.02 C
2003 24-07-2017 22:50:00 12.8 C 95 % 12.02 C
2004 24-07-2017 22:55:00 12.7 C 95 % 11.92 C
2005 24-07-2017 23:00:00 12.7 C 95 % 11.92 C
2006 24-07-2017 23:05:00 12.6 C 95 % 11.82 C
2007 24-07-2017 23:10:00 12.6 C 95 % 11.82 C
2008 24-07-2017 23:15:00 12.4 C 95 % 11.62 C
2009 24-07-2017 23:20:00 12.4 C 95 % 11.62 C
2010 24-07-2017 23:25:00 12.4 C 95 % 11.62 C
2011 24-07-2017 23:30:00 12.3 C 95 % 11.52 C
2012 24-07-2017 23:35:00 12.3 C 95 % 11.52 C
2013 24-07-2017 23:40:00 12.4 C 95 % 11.62 C
2014 24-07-2017 23:45:00 12.4 C 95 % 11.62 C
2015 24-07-2017 23:50:00 12.4 C 96 % 11.78 C
2016 24-07-2017 23:55:00 12.4 C 96 % 11.78 C

Legende:
   Min
   Max


Maximal/Minimal-Werte vom 18.07.2017 - 24.07.2017

Sensor Min Max Avg
Temp
(Aussen-T/F)
12.3 °C
24-07-2017  23:30:00
34.2 °C
19-07-2017  15:50:00
20.32 °C
Feuchte
(Aussen-T/F)
41 %
19-07-2017  15:50:00
97 %
22-07-2017  10:15:00
78.92 %
Taupunkt
(Aussen-T/F)
11.5 C
21-07-2017  05:55:00
20.92 C
22-07-2017  13:05:00
16.1 C

Die Daten stammen von einer Davis Vantage Pro 2 Wetter-Station und werden unter Linux mit der Software wview2wettercgi und aufbereitet. Alle Angaben erfolgen ohne Gewähr für ihre Vollständigkeit oder Richtigkeit.
Kontakt: Rainer Krienke krienke@uni-koblenz.de . Meine Webseiten an der Uni Koblenz oder privat.
Version: $Revision: 0.78 $